<?xml version='1.0' encoding='UTF-8'?><gpx version="1.1" creator="JPX - https://github.com/jenetics/jpx" xmlns="http://www.topografix.com/GPX/1/1"><trk><trkseg><trkpt lat="45.838586647102765" lon="11.590536810001113"><ele>1019.0</ele><time>2026-03-30T06:46:27.238Z</time></trkpt><trkpt lat="45.838690188918406" lon="11.590740141889817"><ele>1019.0</ele><time>2026-03-30T06:46:28.188Z</time></trkpt><trkpt lat="45.838805398886684" lon="11.590921689180071"><ele>1019.0</ele><time>2026-03-30T06:46:29.138Z</time></trkpt><trkpt lat="45.838938558807165" lon="11.59108672548375"><ele>1018.6666666666667</ele><time>2026-03-30T06:46:30.088Z</time></trkpt><trkpt lat="45.839075436249225" lon="11.591233931623677"><ele>1018.3333333333333</ele><time>2026-03-30T06:46:31.038Z</time></trkpt><trkpt lat="45.83921259628608" lon="11.59138370417619"><ele>1018.0</ele><time>2026-03-30T06:46:32.001Z</time></trkpt><trkpt lat="45.83934652687941" lon="11.59154444765009"><ele>1018.0</ele><time>2026-03-30T06:46:33.001Z</time></trkpt><trkpt lat="45.839483233644685" lon="11.591697830691851"><ele>1018.0</ele><time>2026-03-30T06:46:34.001Z</time></trkpt><trkpt lat="45.839611700679605" lon="11.591874616973108"><ele>1018.0</ele><time>2026-03-30T06:46:35.001Z</time></trkpt><trkpt lat="45.83977640986434" lon="11.59198475429374"><ele>1017.3333333333333</ele><time>2026-03-30T06:46:36.001Z</time></trkpt><trkpt lat="45.83992440281244" lon="11.592069199703742"><ele>1016.6666666666667</ele><time>2026-03-30T06:46:37.001Z</time></trkpt><trkpt lat="45.84009419221353" lon="11.592119044541041"><ele>1016.0</ele><time>2026-03-30T06:46:38.001Z</time></trkpt><trkpt lat="45.84024390902018" lon="11.592152383236886"><ele>1014.0</ele><time>2026-03-30T06:46:39.001Z</time></trkpt><trkpt lat="45.84037224136861" lon="11.59215236525835"><ele>1012.0</ele><time>2026-03-30T06:46:40Z</time></trkpt><trkpt lat="45.84050009095806" lon="11.592150793223926"><ele>1010.0</ele><time>2026-03-30T06:46:41Z</time></trkpt><trkpt lat="45.84060392968407" lon="11.592167444463506"><ele>1008.0</ele><time>2026-03-30T06:46:42Z</time></trkpt><trkpt lat="45.840711602153256" lon="11.592195465168665"><ele>1008.0</ele><time>2026-03-30T06:46:43Z</time></trkpt><trkpt lat="45.840807735722706" lon="11.592189103333771"><ele>1008.0</ele><time>2026-03-30T06:46:44Z</time></trkpt><trkpt lat="45.840900498019074" lon="11.592208794490137"><ele>1008.0</ele><time>2026-03-30T06:46:45Z</time></trkpt><trkpt lat="45.840977915177334" lon="11.592252900356252"><ele>1008.0</ele><time>2026-03-30T06:46:46Z</time></trkpt><trkpt lat="45.84104932225076" lon="11.592288814464162"><ele>1008.0</ele><time>2026-03-30T06:46:47Z</time></trkpt><trkpt lat="45.84118172511522" lon="11.592306857048058"><ele>1009.0</ele><time>2026-03-30T06:46:48Z</time></trkpt><trkpt lat="45.84123500861505" lon="11.592367975515254"><ele>1010.0</ele><time>2026-03-30T06:46:49Z</time></trkpt><trkpt lat="45.84131313706318" lon="11.592427453650547"><ele>1011.0</ele><time>2026-03-30T06:46:50Z</time></trkpt><trkpt lat="45.84138117152298" lon="11.592475577752673"><ele>1012.0</ele><time>2026-03-30T06:46:51Z</time></trkpt><trkpt lat="45.84144166910257" lon="11.592531868900913"><ele>1013.0</ele><time>2026-03-30T06:46:52Z</time></trkpt><trkpt lat="45.841505925683435" lon="11.592593042062765"><ele>1014.0</ele><time>2026-03-30T06:46:53Z</time></trkpt><trkpt lat="45.841584454453006" lon="11.592687038216683"><ele>1014.0</ele><time>2026-03-30T06:46:54Z</time></trkpt><trkpt lat="45.84166358786378" lon="11.59279632057169"><ele>1014.0</ele><time>2026-03-30T06:46:55Z</time></trkpt><trkpt lat="45.841742606987296" lon="11.592922819693843"><ele>1014.0</ele><time>2026-03-30T06:46:56Z</time></trkpt><trkpt lat="45.84182023646114" lon="11.593039039277386"><ele>1014.0</ele><time>2026-03-30T06:46:57Z</time></trkpt><trkpt lat="45.8418955241613" lon="11.593220629987483"><ele>1015.0</ele><time>2026-03-30T06:46:58Z</time></trkpt><trkpt lat="45.84200360267263" lon="11.593337503565946"><ele>1016.0</ele><time>2026-03-30T06:46:59Z</time></trkpt><trkpt lat="45.84211555526527" lon="11.593451267638095"><ele>1017.0</ele><time>2026-03-30T06:47:00Z</time></trkpt><trkpt lat="45.84223061706608" lon="11.593559046655509"><ele>1018.0</ele><time>2026-03-30T06:47:01Z</time></trkpt><trkpt lat="45.84237165534315" lon="11.593638387270143"><ele>1019.0</ele><time>2026-03-30T06:47:02Z</time></trkpt><trkpt lat="45.84248293741258" lon="11.593767732088844"><ele>1020.0</ele><time>2026-03-30T06:47:03Z</time></trkpt><trkpt lat="45.8425946622382" lon="11.593902872480715"><ele>1021.0</ele><time>2026-03-30T06:47:04Z</time></trkpt><trkpt lat="45.84270427758192" lon="11.594044486466592"><ele>1022.0</ele><time>2026-03-30T06:47:05Z</time></trkpt><trkpt lat="45.842815621464204" lon="11.594191263657187"><ele>1022.0</ele><time>2026-03-30T06:47:06Z</time></trkpt><trkpt lat="45.84292793804142" lon="11.594330086454294"><ele>1022.0</ele><time>2026-03-30T06:47:07Z</time></trkpt><trkpt lat="45.84303799874068" lon="11.594476194047443"><ele>1022.0</ele><time>2026-03-30T06:47:08Z</time></trkpt><trkpt lat="45.84314538904514" lon="11.594616362087573"><ele>1022.0</ele><time>2026-03-30T06:47:09Z</time></trkpt><trkpt lat="45.84324736415428" lon="11.594764894938185"><ele>1022.75</ele><time>2026-03-30T06:47:10Z</time></trkpt><trkpt lat="45.843341852290436" lon="11.594923717483539"><ele>1023.5</ele><time>2026-03-30T06:47:11Z</time></trkpt><trkpt lat="45.84342457370789" lon="11.595099608648075"><ele>1024.25</ele><time>2026-03-30T06:47:11.999Z</time></trkpt><trkpt lat="45.84349882902387" lon="11.595287608237832"><ele>1025.0</ele><time>2026-03-30T06:47:12.999Z</time></trkpt><trkpt lat="45.84355438123647" lon="11.595482978818302"><ele>1020.25</ele><time>2026-03-30T06:47:13.999Z</time></trkpt><trkpt lat="45.843599688818315" lon="11.595680072338636"><ele>1015.5</ele><time>2026-03-30T06:47:14.999Z</time></trkpt><trkpt lat="45.843652672657704" lon="11.595875988599802"><ele>1010.75</ele><time>2026-03-30T06:47:15.999Z</time></trkpt><trkpt lat="45.843717347026136" lon="11.596076556090376"><ele>1006.0</ele><time>2026-03-30T06:47:16.999Z</time></trkpt><trkpt lat="45.84379877081815" lon="11.596267277215752"><ele>999.6666666666666</ele><time>2026-03-30T06:47:17.999Z</time></trkpt><trkpt lat="45.843883011864875" lon="11.596466749337399"><ele>993.3333333333333</ele><time>2026-03-30T06:47:18.999Z</time></trkpt><trkpt lat="45.84395750718575" lon="11.596662575168247"><ele>987.0</ele><time>2026-03-30T06:47:19.999Z</time></trkpt><trkpt lat="45.844017424941654" lon="11.596880798969107"><ele>988.0</ele><time>2026-03-30T06:47:20.999Z</time></trkpt><trkpt lat="45.8440730269825" lon="11.597112216472786"><ele>989.0</ele><time>2026-03-30T06:47:21.999Z</time></trkpt><trkpt lat="45.84412072602137" lon="11.597345597868765"><ele>990.0</ele><time>2026-03-30T06:47:22.999Z</time></trkpt><trkpt lat="45.84416381333388" lon="11.597583882500263"><ele>990.0</ele><time>2026-03-30T06:47:23.999Z</time></trkpt><trkpt lat="45.84420459002203" lon="11.597823305478322"><ele>990.0</ele><time>2026-03-30T06:47:24.999Z</time></trkpt><trkpt lat="45.84424282498312" lon="11.598057142722013"><ele>990.0</ele><time>2026-03-30T06:47:25.999Z</time></trkpt><trkpt lat="45.84429722903832" lon="11.598289581286277"><ele>990.3333333333333</ele><time>2026-03-30T06:47:26.999Z</time></trkpt><trkpt lat="45.844304914881725" lon="11.59851781998954"><ele>990.6666666666666</ele><time>2026-03-30T06:47:27.999Z</time></trkpt><trkpt lat="45.844361314668106" lon="11.598750013552635"><ele>991.0</ele><time>2026-03-30T06:47:28.999Z</time></trkpt><trkpt lat="45.84442565137964" lon="11.598980088582504"><ele>991.0</ele><time>2026-03-30T06:47:29.999Z</time></trkpt><trkpt lat="45.84447178956561" lon="11.599205182688646"><ele>991.0</ele><time>2026-03-30T06:47:30.999Z</time></trkpt><trkpt lat="45.844533246114544" lon="11.59942659969334"><ele>991.0</ele><time>2026-03-30T06:47:31.999Z</time></trkpt><trkpt lat="45.844612293606424" lon="11.599626493843997"><ele>986.3333333333333</ele><time>2026-03-30T06:47:32.999Z</time></trkpt><trkpt lat="45.84470621215245" lon="11.599824680973727"><ele>981.6666666666667</ele><time>2026-03-30T06:47:33.999Z</time></trkpt><trkpt lat="45.84481154828065" lon="11.600021075673249"><ele>977.0</ele><time>2026-03-30T06:47:34.999Z</time></trkpt><trkpt lat="45.8449169575137" lon="11.600215464243703"><ele>977.6666666666667</ele><time>2026-03-30T06:47:35.999Z</time></trkpt><trkpt lat="45.84502045738461" lon="11.600412754188469"><ele>978.3333333333333</ele><time>2026-03-30T06:47:36.999Z</time></trkpt><trkpt lat="45.8451261425096" lon="11.600606819035509"><ele>979.0</ele><time>2026-03-30T06:47:37.999Z</time></trkpt><trkpt lat="45.84524026994824" lon="11.600787476057503"><ele>979.6666666666666</ele><time>2026-03-30T06:47:38.999Z</time></trkpt><trkpt lat="45.84536351643412" lon="11.60095398677536"><ele>980.3333333333333</ele><time>2026-03-30T06:47:39.999Z</time></trkpt><trkpt lat="45.84548225868898" lon="11.601106760874432"><ele>981.0</ele><time>2026-03-30T06:47:40.999Z</time></trkpt><trkpt lat="45.84561252833721" lon="11.601250618701513"><ele>981.3333333333333</ele><time>2026-03-30T06:47:41.999Z</time></trkpt><trkpt lat="45.84572671562116" lon="11.601406738834358"><ele>981.6666666666666</ele><time>2026-03-30T06:47:42.999Z</time></trkpt><trkpt lat="45.845841411104296" lon="11.601557592294746"><ele>982.0</ele><time>2026-03-30T06:47:43.999Z</time></trkpt><trkpt lat="45.84596562378397" lon="11.601684604446978"><ele>982.0</ele><time>2026-03-30T06:47:44.999Z</time></trkpt><trkpt lat="45.84610363959771" lon="11.601790248392154"><ele>982.0</ele><time>2026-03-30T06:47:45.999Z</time></trkpt><trkpt lat="45.84625424433881" lon="11.601872221238668"><ele>982.0</ele><time>2026-03-30T06:47:46.999Z</time></trkpt><trkpt lat="45.84640793132896" lon="11.601952670460374"><ele>981.3333333333333</ele><time>2026-03-30T06:47:47.999Z</time></trkpt><trkpt lat="45.84655861994758" lon="11.60202174896839"><ele>980.6666666666667</ele><time>2026-03-30T06:47:48.999Z</time></trkpt><trkpt lat="45.84671973188992" lon="11.602059794145541"><ele>980.0</ele><time>2026-03-30T06:47:49.999Z</time></trkpt><trkpt lat="45.846877302009744" lon="11.602079362648034"><ele>980.0</ele><time>2026-03-30T06:47:50.999Z</time></trkpt><trkpt lat="45.84703049733024" lon="11.602040373797026"><ele>980.0</ele><time>2026-03-30T06:47:51.999Z</time></trkpt><trkpt lat="45.84719569077296" lon="11.60196256814639"><ele>980.0</ele><time>2026-03-30T06:47:52.999Z</time></trkpt><trkpt lat="45.8473618944468" lon="11.601895519619275"><ele>979.0</ele><time>2026-03-30T06:47:53.999Z</time></trkpt><trkpt lat="45.847528029603545" lon="11.601828207403727"><ele>978.0</ele><time>2026-03-30T06:47:54.999Z</time></trkpt><trkpt lat="45.84769062735272" lon="11.601757931356673"><ele>977.0</ele><time>2026-03-30T06:47:55.999Z</time></trkpt><trkpt lat="45.84784339689459" lon="11.601688129646549"><ele>977.0</ele><time>2026-03-30T06:47:56.999Z</time></trkpt><trkpt lat="45.84801703377056" lon="11.601621760210227"><ele>977.0</ele><time>2026-03-30T06:47:57.999Z</time></trkpt><trkpt lat="45.84816701584202" lon="11.601558254183868"><ele>977.0</ele><time>2026-03-30T06:47:58.999Z</time></trkpt><trkpt lat="45.84830285774584" lon="11.601521365175637"><ele>977.0</ele><time>2026-03-30T06:47:59.999Z</time></trkpt><trkpt lat="45.84844907890218" lon="11.60152610426919"><ele>977.0</ele><time>2026-03-30T06:48:00.999Z</time></trkpt><trkpt lat="45.84857898255269" lon="11.60159292012981"><ele>977.0</ele><time>2026-03-30T06:48:01.999Z</time></trkpt><trkpt lat="45.84870153086636" lon="11.601720375841333"><ele>977.0</ele><time>2026-03-30T06:48:02.999Z</time></trkpt><trkpt lat="45.848812611132196" lon="11.601872967238085"><ele>977.3333333333334</ele><time>2026-03-30T06:48:03.999Z</time></trkpt><trkpt lat="45.84893372531652" lon="11.602027289272923"><ele>977.6666666666667</ele><time>2026-03-30T06:48:04.999Z</time></trkpt><trkpt lat="45.849068623509325" lon="11.602174937136459"><ele>978.0</ele><time>2026-03-30T06:48:05.999Z</time></trkpt><trkpt lat="45.849204539697794" lon="11.602319409929938"><ele>982.3333333333333</ele><time>2026-03-30T06:48:06.999Z</time></trkpt><trkpt lat="45.84934745767513" lon="11.602449519842514"><ele>986.6666666666666</ele><time>2026-03-30T06:48:07.999Z</time></trkpt><trkpt lat="45.84949484525399" lon="11.602571679720231"><ele>991.0</ele><time>2026-03-30T06:48:08.999Z</time></trkpt><trkpt lat="45.84964634328798" lon="11.602698775136497"><ele>991.0</ele><time>2026-03-30T06:48:09.999Z</time></trkpt><trkpt lat="45.84979961634547" lon="11.602827450218232"><ele>991.0</ele><time>2026-03-30T06:48:10.999Z</time></trkpt><trkpt lat="45.84995631626823" lon="11.602943729484409"><ele>991.0</ele><time>2026-03-30T06:48:11.999Z</time></trkpt><trkpt lat="45.85011717285388" lon="11.603052413780278"><ele>987.3333333333333</ele><time>2026-03-30T06:48:12.999Z</time></trkpt><trkpt lat="45.850277275473466" lon="11.603160444179128"><ele>983.6666666666667</ele><time>2026-03-30T06:48:13.999Z</time></trkpt><trkpt lat="45.85042994522857" lon="11.603269591517035"><ele>980.0</ele><time>2026-03-30T06:48:14.999Z</time></trkpt><trkpt lat="45.85058104909083" lon="11.603374809825363"><ele>980.0</ele><time>2026-03-30T06:48:15.999Z</time></trkpt><trkpt lat="45.85073004750064" lon="11.603470325872632"><ele>980.0</ele><time>2026-03-30T06:48:16.999Z</time></trkpt><trkpt lat="45.85088300014683" lon="11.603532476628397"><ele>980.0</ele><time>2026-03-30T06:48:17.999Z</time></trkpt><trkpt lat="45.85103665709204" lon="11.603546147047618"><ele>979.3333333333334</ele><time>2026-03-30T06:48:18.999Z</time></trkpt><trkpt lat="45.85120688167164" lon="11.60354382887709"><ele>978.6666666666667</ele><time>2026-03-30T06:48:19.999Z</time></trkpt><trkpt lat="45.85137764043085" lon="11.603526634996783"><ele>978.0</ele><time>2026-03-30T06:48:20.999Z</time></trkpt><trkpt lat="45.85154917551249" lon="11.60350603363862"><ele>978.0</ele><time>2026-03-30T06:48:21.999Z</time></trkpt><trkpt lat="45.85172286955582" lon="11.603483612506388"><ele>978.0</ele><time>2026-03-30T06:48:22.999Z</time></trkpt><trkpt lat="45.85189164100681" lon="11.603464996867919"><ele>978.0</ele><time>2026-03-30T06:48:23.999Z</time></trkpt><trkpt lat="45.85206094889772" lon="11.603443023084525"><ele>975.3333333333333</ele><time>2026-03-30T06:48:24.999Z</time></trkpt><trkpt lat="45.85222846835949" lon="11.603421441102787"><ele>972.6666666666666</ele><time>2026-03-30T06:48:25.999Z</time></trkpt><trkpt lat="45.85239616381444" lon="11.60340116121155"><ele>970.0</ele><time>2026-03-30T06:48:26.999Z</time></trkpt><trkpt lat="45.85255359033276" lon="11.6033827032588"><ele>971.0</ele><time>2026-03-30T06:48:27.999Z</time></trkpt><trkpt lat="45.85271497709019" lon="11.603359369310093"><ele>972.0</ele><time>2026-03-30T06:48:28.999Z</time></trkpt><trkpt lat="45.852871731680935" lon="11.60333162676225"><ele>973.0</ele><time>2026-03-30T06:48:29.999Z</time></trkpt><trkpt lat="45.85303411940464" lon="11.603312108691169"><ele>973.0</ele><time>2026-03-30T06:48:30.999Z</time></trkpt><trkpt lat="45.85318613316058" lon="11.603310518671362"><ele>973.0</ele><time>2026-03-30T06:48:31.999Z</time></trkpt><trkpt lat="45.853339143211194" lon="11.603328588461006"><ele>973.0</ele><time>2026-03-30T06:48:32.999Z</time></trkpt><trkpt lat="45.85347854698467" lon="11.603389323968813"><ele>974.6666666666666</ele><time>2026-03-30T06:48:33.999Z</time></trkpt><trkpt lat="45.85361922197134" lon="11.603476664835535"><ele>976.3333333333333</ele><time>2026-03-30T06:48:34.999Z</time></trkpt><trkpt lat="45.85374722693293" lon="11.60356944420983"><ele>978.0</ele><time>2026-03-30T06:48:35.999Z</time></trkpt><trkpt lat="45.85386936569225" lon="11.603717792211492"><ele>978.0</ele><time>2026-03-30T06:48:36.999Z</time></trkpt><trkpt lat="45.85400015686502" lon="11.603828430766628"><ele>978.0</ele><time>2026-03-30T06:48:37.999Z</time></trkpt><trkpt lat="45.85412528474168" lon="11.603940036972917"><ele>978.0</ele><time>2026-03-30T06:48:38.999Z</time></trkpt><trkpt lat="45.85425160488294" lon="11.60404556383313"><ele>978.0</ele><time>2026-03-30T06:48:39.999Z</time></trkpt><trkpt lat="45.8543766126766" lon="11.604130750084169"><ele>978.25</ele><time>2026-03-30T06:48:40.999Z</time></trkpt><trkpt lat="45.85449505065907" lon="11.604230938230653"><ele>978.5</ele><time>2026-03-30T06:48:41.999Z</time></trkpt><trkpt lat="45.85459770523864" lon="11.604357910968998"><ele>978.75</ele><time>2026-03-30T06:48:42.999Z</time></trkpt><trkpt lat="45.85468961589114" lon="11.604504032221426"><ele>979.0</ele><time>2026-03-30T06:48:43.999Z</time></trkpt><trkpt lat="45.85479446258799" lon="11.60466721609158"><ele>979.0</ele><time>2026-03-30T06:48:44.999Z</time></trkpt><trkpt lat="45.854900807397875" lon="11.604833922889817"><ele>979.0</ele><time>2026-03-30T06:48:45.999Z</time></trkpt><trkpt lat="45.85499766236987" lon="11.605003809228617"><ele>979.0</ele><time>2026-03-30T06:48:46.999Z</time></trkpt><trkpt lat="45.85507652626338" lon="11.605182492514214"><ele>977.75</ele><time>2026-03-30T06:48:47.999Z</time></trkpt><trkpt lat="45.855147368804886" lon="11.60537369338049"><ele>976.5</ele><time>2026-03-30T06:48:48.999Z</time></trkpt><trkpt lat="45.85522303084022" lon="11.605555322968495"><ele>975.25</ele><time>2026-03-30T06:48:49.999Z</time></trkpt><trkpt lat="45.85530337715041" lon="11.605707620981935"><ele>974.0</ele><time>2026-03-30T06:48:50.999Z</time></trkpt><trkpt lat="45.85541475507852" lon="11.605815702081285"><ele>974.0</ele><time>2026-03-30T06:48:51.999Z</time></trkpt><trkpt lat="45.855530918605766" lon="11.60589666477968"><ele>974.0</ele><time>2026-03-30T06:48:52.999Z</time></trkpt><trkpt lat="45.85566602959774" lon="11.605968461866699"><ele>974.0</ele><time>2026-03-30T06:48:53.999Z</time></trkpt><trkpt lat="45.855796936817015" lon="11.606057112185852"><ele>974.0</ele><time>2026-03-30T06:48:54.999Z</time></trkpt><trkpt lat="45.85590003227407" lon="11.606218601480096"><ele>976.0</ele><time>2026-03-30T06:48:55.999Z</time></trkpt><trkpt lat="45.855993014676976" lon="11.606404658088808"><ele>978.0</ele><time>2026-03-30T06:48:56.999Z</time></trkpt><trkpt lat="45.85608400491987" lon="11.60658542655446"><ele>980.0</ele><time>2026-03-30T06:48:57.999Z</time></trkpt><trkpt lat="45.85618017015199" lon="11.606772798532948"><ele>980.0</ele><time>2026-03-30T06:48:58.999Z</time></trkpt><trkpt lat="45.856292529642715" lon="11.60695744142986"><ele>980.0</ele><time>2026-03-30T06:48:59.999Z</time></trkpt><trkpt lat="45.85638088781348" lon="11.60716549035875"><ele>980.0</ele><time>2026-03-30T06:49:00.999Z</time></trkpt><trkpt lat="45.856474840752014" lon="11.607376115771341"><ele>976.0</ele><time>2026-03-30T06:49:01.999Z</time></trkpt><trkpt lat="45.856544637878315" lon="11.607598054442905"><ele>972.0</ele><time>2026-03-30T06:49:02.999Z</time></trkpt><trkpt lat="45.8566103546672" lon="11.60782760714448"><ele>968.0</ele><time>2026-03-30T06:49:03.999Z</time></trkpt><trkpt lat="45.856675151133246" lon="11.608052401217186"><ele>968.0</ele><time>2026-03-30T06:49:04.999Z</time></trkpt><trkpt lat="45.85674652698844" lon="11.608238636725371"><ele>968.0</ele><time>2026-03-30T06:49:05.999Z</time></trkpt><trkpt lat="45.85679401991233" lon="11.608406474349675"><ele>968.0</ele><time>2026-03-30T06:49:06.999Z</time></trkpt><trkpt lat="45.856861389058025" lon="11.608552952547974"><ele>968.0</ele><time>2026-03-30T06:49:07.999Z</time></trkpt><trkpt lat="45.85696301864544" lon="11.60868156614341"><ele>962.0</ele><time>2026-03-30T06:49:08.999Z</time></trkpt><trkpt lat="45.85709398404427" lon="11.60878569171466"><ele>956.0</ele><time>2026-03-30T06:49:09.999Z</time></trkpt><trkpt lat="45.85724506728481" lon="11.608878656620737"><ele>950.0</ele><time>2026-03-30T06:49:10.999Z</time></trkpt><trkpt lat="45.85739790355757" lon="11.608957496918352"><ele>950.0</ele><time>2026-03-30T06:49:11.999Z</time></trkpt><trkpt lat="45.85756432082056" lon="11.60906731866603"><ele>950.0</ele><time>2026-03-30T06:49:12.999Z</time></trkpt><trkpt lat="45.857719665835575" lon="11.609180905052785"><ele>950.0</ele><time>2026-03-30T06:49:13.999Z</time></trkpt><trkpt lat="45.85787051344038" lon="11.60928992655593"><ele>952.6666666666667</ele><time>2026-03-30T06:49:14.999Z</time></trkpt><trkpt lat="45.8580146021395" lon="11.609386853857698"><ele>955.3333333333333</ele><time>2026-03-30T06:49:15.999Z</time></trkpt><trkpt lat="45.85816111209542" lon="11.609453113567218"><ele>958.0</ele><time>2026-03-30T06:49:16.998Z</time></trkpt><trkpt lat="45.85831039720296" lon="11.60946863882523"><ele>958.0</ele><time>2026-03-30T06:49:17.998Z</time></trkpt><trkpt lat="45.858472921314565" lon="11.609445224557529"><ele>958.0</ele><time>2026-03-30T06:49:18.998Z</time></trkpt><trkpt lat="45.85864049557586" lon="11.609396195830719"><ele>958.0</ele><time>2026-03-30T06:49:19.998Z</time></trkpt><trkpt lat="45.858798908392444" lon="11.609364385701442"><ele>958.0</ele><time>2026-03-30T06:49:20.998Z</time></trkpt><trkpt lat="45.85897178715536" lon="11.609349638059934"><ele>958.0</ele><time>2026-03-30T06:49:21.998Z</time></trkpt><trkpt lat="45.8591429045644" lon="11.60936192804671"><ele>958.0</ele><time>2026-03-30T06:49:22.998Z</time></trkpt><trkpt lat="45.85931819895388" lon="11.609398275930221"><ele>958.0</ele><time>2026-03-30T06:49:23.998Z</time></trkpt><trkpt lat="45.85949042170773" lon="11.609460311110448"><ele>958.0</ele><time>2026-03-30T06:49:24.998Z</time></trkpt><trkpt lat="45.85965779110417" lon="11.609550355924226"><ele>958.0</ele><time>2026-03-30T06:49:25.998Z</time></trkpt><trkpt lat="45.85981982941503" lon="11.609671352499284"><ele>955.6666666666666</ele><time>2026-03-30T06:49:26.998Z</time></trkpt><trkpt lat="45.859964721266536" lon="11.609820309662172"><ele>953.3333333333333</ele><time>2026-03-30T06:49:27.998Z</time></trkpt><trkpt lat="45.86010488974891" lon="11.609997461979502"><ele>951.0</ele><time>2026-03-30T06:49:28.998Z</time></trkpt><trkpt lat="45.86022685446363" lon="11.610197931514396"><ele>947.3333333333333</ele><time>2026-03-30T06:49:29.998Z</time></trkpt><trkpt lat="45.86034200583969" lon="11.610402222534894"><ele>943.6666666666666</ele><time>2026-03-30T06:49:30.998Z</time></trkpt><trkpt lat="45.86046321050703" lon="11.610595914679168"><ele>940.0</ele><time>2026-03-30T06:49:31.998Z</time></trkpt><trkpt lat="45.86058946186041" lon="11.610784006271276"><ele>940.0</ele><time>2026-03-30T06:49:32.998Z</time></trkpt><trkpt lat="45.86071499852467" lon="11.610976827884727"><ele>940.0</ele><time>2026-03-30T06:49:33.998Z</time></trkpt><trkpt lat="45.860840523506376" lon="11.611169809124135"><ele>940.0</ele><time>2026-03-30T06:49:34.998Z</time></trkpt><trkpt lat="45.860963073601454" lon="11.61136509298358"><ele>941.0</ele><time>2026-03-30T06:49:35.998Z</time></trkpt><trkpt lat="45.86108442145609" lon="11.611555143254732"><ele>942.0</ele><time>2026-03-30T06:49:36.998Z</time></trkpt><trkpt lat="45.86120118291075" lon="11.611740425833327"><ele>943.0</ele><time>2026-03-30T06:49:37.998Z</time></trkpt><trkpt lat="45.861306686302484" lon="11.611932510766446"><ele>942.0</ele><time>2026-03-30T06:49:38.998Z</time></trkpt><trkpt lat="45.86138558054632" lon="11.6121312935133"><ele>941.0</ele><time>2026-03-30T06:49:39.998Z</time></trkpt><trkpt lat="45.86145286489219" lon="11.612333245292168"><ele>940.0</ele><time>2026-03-30T06:49:40.998Z</time></trkpt><trkpt lat="45.861525428178446" lon="11.612520773884226"><ele>940.0</ele><time>2026-03-30T06:49:41.998Z</time></trkpt><trkpt lat="45.86159828790204" lon="11.61267039818194"><ele>940.0</ele><time>2026-03-30T06:49:42.998Z</time></trkpt><trkpt lat="45.86169000705201" lon="11.612774208894795"><ele>940.0</ele><time>2026-03-30T06:49:43.998Z</time></trkpt><trkpt lat="45.861797235407614" lon="11.612824810655953"><ele>940.0</ele><time>2026-03-30T06:49:44.998Z</time></trkpt><trkpt lat="45.86191905984625" lon="11.612814645182508"><ele>942.0</ele><time>2026-03-30T06:49:45.998Z</time></trkpt><trkpt lat="45.86203053487848" lon="11.612752876998709"><ele>944.0</ele><time>2026-03-30T06:49:46.998Z</time></trkpt><trkpt lat="45.862138709745516" lon="11.612682948190368"><ele>946.0</ele><time>2026-03-30T06:49:47.998Z</time></trkpt><trkpt lat="45.86225174277351" lon="11.612608301053685"><ele>948.0</ele><time>2026-03-30T06:49:48.998Z</time></trkpt><trkpt lat="45.8623681069138" lon="11.612529505321524"><ele>948.0</ele><time>2026-03-30T06:49:49.998Z</time></trkpt><trkpt lat="45.86247530305735" lon="11.612452320489785"><ele>948.0</ele><time>2026-03-30T06:49:50.998Z</time></trkpt><trkpt lat="45.862579276082954" lon="11.61240761329374"><ele>948.0</ele><time>2026-03-30T06:49:51.998Z</time></trkpt><trkpt lat="45.862665522872796" lon="11.612379349865083"><ele>948.0</ele><time>2026-03-30T06:49:52.998Z</time></trkpt><trkpt lat="45.862734251898374" lon="11.612394601578956"><ele>948.0</ele><time>2026-03-30T06:49:53.998Z</time></trkpt><trkpt lat="45.86278463329061" lon="11.612468732856824"><ele>948.8333333333334</ele><time>2026-03-30T06:49:54.998Z</time></trkpt><trkpt lat="45.86279786676994" lon="11.612580315586378"><ele>949.6666666666667</ele><time>2026-03-30T06:49:55.998Z</time></trkpt><trkpt lat="45.86276961987043" lon="11.612696387557074"><ele>950.5</ele><time>2026-03-30T06:49:56.998Z</time></trkpt><trkpt lat="45.86277205203006" lon="11.612815995252108"><ele>951.3333333333334</ele><time>2026-03-30T06:49:57.998Z</time></trkpt><trkpt lat="45.86272943260667" lon="11.612943603426535"><ele>952.1666666666667</ele><time>2026-03-30T06:49:58.998Z</time></trkpt><trkpt lat="45.86266742002189" lon="11.613060266896438"><ele>953.0</ele><time>2026-03-30T06:49:59.998Z</time></trkpt><trkpt lat="45.86259261971134" lon="11.613170721772729"><ele>953.0</ele><time>2026-03-30T06:50:00.998Z</time></trkpt><trkpt lat="45.862520076518045" lon="11.61328822387435"><ele>953.0</ele><time>2026-03-30T06:50:01.998Z</time></trkpt><trkpt lat="45.862454394413255" lon="11.61342409167429"><ele>953.0</ele><time>2026-03-30T06:50:02.998Z</time></trkpt><trkpt lat="45.86241356317579" lon="11.613578600002286"><ele>953.0</ele><time>2026-03-30T06:50:03.998Z</time></trkpt><trkpt lat="45.86237883453055" lon="11.613725568540012"><ele>953.0</ele><time>2026-03-30T06:50:04.998Z</time></trkpt><trkpt lat="45.862352086481785" lon="11.613875866121623"><ele>954.0</ele><time>2026-03-30T06:50:05.998Z</time></trkpt><trkpt lat="45.862334401028235" lon="11.614020327925749"><ele>955.0</ele><time>2026-03-30T06:50:06.998Z</time></trkpt><trkpt lat="45.86233558496682" lon="11.614162994231936"><ele>956.0</ele><time>2026-03-30T06:50:07.998Z</time></trkpt><trkpt lat="45.86236397913217" lon="11.614289581636735"><ele>957.0</ele><time>2026-03-30T06:50:08.998Z</time></trkpt><trkpt lat="45.86242158794188" lon="11.614389032385525"><ele>958.0</ele><time>2026-03-30T06:50:09.998Z</time></trkpt><trkpt lat="45.86248724669475" lon="11.61447768735736"><ele>958.0</ele><time>2026-03-30T06:50:10.998Z</time></trkpt><trkpt lat="45.86257464866639" lon="11.614548450594247"><ele>958.0</ele><time>2026-03-30T06:50:11.998Z</time></trkpt><trkpt lat="45.86266891671731" lon="11.614604440929034"><ele>958.0</ele><time>2026-03-30T06:50:12.998Z</time></trkpt><trkpt lat="45.86277066248146" lon="11.614597616811938"><ele>958.0</ele><time>2026-03-30T06:50:13.998Z</time></trkpt><trkpt lat="45.862855934986975" lon="11.614595041800104"><ele>958.0</ele><time>2026-03-30T06:50:14.998Z</time></trkpt><trkpt lat="45.86292564344983" lon="11.614566012275507"><ele>957.9999999999999</ele><time>2026-03-30T06:50:15.998Z</time></trkpt><trkpt lat="45.86298883120063" lon="11.614504705201607"><ele>958.0</ele><time>2026-03-30T06:50:16.998Z</time></trkpt><trkpt lat="45.86305596028646" lon="11.614432924922477"><ele>958.0</ele><time>2026-03-30T06:50:17.998Z</time></trkpt><trkpt lat="45.86312376523398" lon="11.614367866696794"><ele>958.0</ele><time>2026-03-30T06:50:18.998Z</time></trkpt><trkpt lat="45.86319366256099" lon="11.61432271232643"><ele>957.9999999999999</ele><time>2026-03-30T06:50:19.998Z</time></trkpt><trkpt lat="45.863259121228374" lon="11.614347953356171"><ele>958.0</ele><time>2026-03-30T06:50:20.998Z</time></trkpt><trkpt lat="45.86334836568337" lon="11.614362684457374"><ele>960.75</ele><time>2026-03-30T06:50:21.998Z</time></trkpt><trkpt lat="45.863436185485845" lon="11.614431251287211"><ele>963.5</ele><time>2026-03-30T06:50:22.998Z</time></trkpt><trkpt lat="45.86352948976674" lon="11.614522649383147"><ele>966.25</ele><time>2026-03-30T06:50:23.998Z</time></trkpt><trkpt lat="45.863625792113" lon="11.61463277189009"><ele>969.0</ele><time>2026-03-30T06:50:24.998Z</time></trkpt><trkpt lat="45.86370879357049" lon="11.614768184273592"><ele>969.75</ele><time>2026-03-30T06:50:25.998Z</time></trkpt><trkpt lat="45.86376407352802" lon="11.61494352036328"><ele>970.5</ele><time>2026-03-30T06:50:26.998Z</time></trkpt><trkpt lat="45.86384278097219" lon="11.615093242472406"><ele>971.25</ele><time>2026-03-30T06:50:27.998Z</time></trkpt><trkpt lat="45.863926466807925" lon="11.615232988444331"><ele>972.0</ele><time>2026-03-30T06:50:28.998Z</time></trkpt><trkpt lat="45.863975880196705" lon="11.615409809700042"><ele>969.0</ele><time>2026-03-30T06:50:29.998Z</time></trkpt><trkpt lat="45.86400628410948" lon="11.615595261322907"><ele>966.0</ele><time>2026-03-30T06:50:30.998Z</time></trkpt><trkpt lat="45.864038189233526" lon="11.615773788718661"><ele>963.0</ele><time>2026-03-30T06:50:31.998Z</time></trkpt><trkpt lat="45.864061056904426" lon="11.615953748888709"><ele>960.0</ele><time>2026-03-30T06:50:32.998Z</time></trkpt><trkpt lat="45.86409674595582" lon="11.61611062166522"><ele>960.6</ele><time>2026-03-30T06:50:33.998Z</time></trkpt><trkpt lat="45.86413152947138" lon="11.616240741572986"><ele>961.2</ele><time>2026-03-30T06:50:34.998Z</time></trkpt><trkpt lat="45.8641852483212" lon="11.616348417666602"><ele>961.8</ele><time>2026-03-30T06:50:35.998Z</time></trkpt><trkpt lat="45.86426068231191" lon="11.616439155096192"><ele>962.4</ele><time>2026-03-30T06:50:36.998Z</time></trkpt><trkpt lat="45.86435531484812" lon="11.616487353906365"><ele>963.0</ele><time>2026-03-30T06:50:37.998Z</time></trkpt><trkpt lat="45.864464964087134" lon="11.616498876034804"><ele>963.0</ele><time>2026-03-30T06:50:38.998Z</time></trkpt><trkpt lat="45.8645713699154" lon="11.61647332591711"><ele>963.0</ele><time>2026-03-30T06:50:39.998Z</time></trkpt><trkpt lat="45.8646723732635" lon="11.616452740264567"><ele>963.0</ele><time>2026-03-30T06:50:40.998Z</time></trkpt><trkpt lat="45.86475977267142" lon="11.616408111360066"><ele>963.0</ele><time>2026-03-30T06:50:41.998Z</time></trkpt><trkpt lat="45.86485597103466" lon="11.616431988341073"><ele>963.0</ele><time>2026-03-30T06:50:42.998Z</time></trkpt><trkpt lat="45.864954616783265" lon="11.616507326548994"><ele>963.0</ele><time>2026-03-30T06:50:43.998Z</time></trkpt><trkpt lat="45.86504182328355" lon="11.61661643847977"><ele>963.0</ele><time>2026-03-30T06:50:44.998Z</time></trkpt><trkpt lat="45.86511411903923" lon="11.616756130679049"><ele>963.0</ele><time>2026-03-30T06:50:45.998Z</time></trkpt><trkpt lat="45.86516163470391" lon="11.616916507136958"><ele>963.0</ele><time>2026-03-30T06:50:46.998Z</time></trkpt><trkpt lat="45.86519919253462" lon="11.617072505828029"><ele>964.0</ele><time>2026-03-30T06:50:47.998Z</time></trkpt><trkpt lat="45.865256127464036" lon="11.617209992119562"><ele>965.0</ele><time>2026-03-30T06:50:48.998Z</time></trkpt><trkpt lat="45.86532887587019" lon="11.617328028889904"><ele>966.0</ele><time>2026-03-30T06:50:49.998Z</time></trkpt><trkpt lat="45.86541914017277" lon="11.617438100221728"><ele>967.0</ele><time>2026-03-30T06:50:50.998Z</time></trkpt><trkpt lat="45.865521099735666" lon="11.617537118480247"><ele>967.0</ele><time>2026-03-30T06:50:51.998Z</time></trkpt><trkpt lat="45.86563034784208" lon="11.617631856154066"><ele>967.0</ele><time>2026-03-30T06:50:52.998Z</time></trkpt><trkpt lat="45.86573810488487" lon="11.61772469083501"><ele>967.0</ele><time>2026-03-30T06:50:53.998Z</time></trkpt><trkpt lat="45.86583670067192" lon="11.61781768761223"><ele>967.0</ele><time>2026-03-30T06:50:54.998Z</time></trkpt><trkpt lat="45.86592806269754" lon="11.617913534089665"><ele>968.1666666666666</ele><time>2026-03-30T06:50:55.998Z</time></trkpt><trkpt lat="45.86601318144787" lon="11.61799366109232"><ele>969.3333333333333</ele><time>2026-03-30T06:50:56.998Z</time></trkpt><trkpt lat="45.866091963921534" lon="11.61804676291856"><ele>970.5</ele><time>2026-03-30T06:50:57.998Z</time></trkpt><trkpt lat="45.86616712826076" lon="11.618050057775747"><ele>971.6666666666667</ele><time>2026-03-30T06:50:58.998Z</time></trkpt><trkpt lat="45.866242245844475" lon="11.618002765689958"><ele>972.8333333333334</ele><time>2026-03-30T06:50:59.998Z</time></trkpt><trkpt lat="45.86630905143212" lon="11.617905039545487"><ele>974.0</ele><time>2026-03-30T06:51:00.998Z</time></trkpt><trkpt lat="45.86637642371914" lon="11.617797876890428"><ele>974.0</ele><time>2026-03-30T06:51:01.998Z</time></trkpt><trkpt lat="45.86644260081538" lon="11.617674567609402"><ele>974.0000000000001</ele><time>2026-03-30T06:51:02.998Z</time></trkpt><trkpt lat="45.86650600199972" lon="11.617556353016369"><ele>974.0000000000001</ele><time>2026-03-30T06:51:03.998Z</time></trkpt><trkpt lat="45.86658342737242" lon="11.617464226339107"><ele>974.0</ele><time>2026-03-30T06:51:04.998Z</time></trkpt><trkpt lat="45.86663369755076" lon="11.61736037140721"><ele>974.0</ele><time>2026-03-30T06:51:05.998Z</time></trkpt><trkpt lat="45.86671185957098" lon="11.61731554689228"><ele>977.0</ele><time>2026-03-30T06:51:06.998Z</time></trkpt><trkpt lat="45.866793915939105" lon="11.617326573853829"><ele>980.0000000000001</ele><time>2026-03-30T06:51:07.998Z</time></trkpt><trkpt lat="45.866886934684274" lon="11.61739018861643"><ele>983.0000000000001</ele><time>2026-03-30T06:51:08.998Z</time></trkpt><trkpt lat="45.86696395587039" lon="11.617496250325386"><ele>986.0</ele><time>2026-03-30T06:51:09.998Z</time></trkpt><trkpt lat="45.86702511014778" lon="11.6176167150984"><ele>989.0</ele><time>2026-03-30T06:51:10.998Z</time></trkpt><trkpt lat="45.8670867630521" lon="11.61774998326081"><ele>986.0</ele><time>2026-03-30T06:51:11.998Z</time></trkpt><trkpt lat="45.86714796275469" lon="11.617879835465898"><ele>983.0000000000001</ele><time>2026-03-30T06:51:12.998Z</time></trkpt><trkpt lat="45.86719581109169" lon="11.61802720462284"><ele>980.0000000000001</ele><time>2026-03-30T06:51:13.998Z</time></trkpt><trkpt lat="45.86724457372677" lon="11.618165371654396"><ele>977.0</ele><time>2026-03-30T06:51:14.998Z</time></trkpt><trkpt lat="45.867304765234344" lon="11.618278953974656"><ele>974.0</ele><time>2026-03-30T06:51:15.998Z</time></trkpt><trkpt lat="45.86737712630436" lon="11.618357942229334"><ele>974.0</ele><time>2026-03-30T06:51:16.998Z</time></trkpt><trkpt lat="45.867467142929634" lon="11.61840006617242"><ele>974.0</ele><time>2026-03-30T06:51:17.998Z</time></trkpt><trkpt lat="45.86758375647934" lon="11.618423515668022"><ele>974.0</ele><time>2026-03-30T06:51:18.998Z</time></trkpt><trkpt lat="45.867707889251854" lon="11.618441366755064"><ele>974.0</ele><time>2026-03-30T06:51:19.998Z</time></trkpt><trkpt lat="45.867838148372705" lon="11.618459237308674"><ele>973.5</ele><time>2026-03-30T06:51:20.998Z</time></trkpt><trkpt lat="45.8679626086121" lon="11.618492482944099"><ele>973.0</ele><time>2026-03-30T06:51:21.998Z</time></trkpt><trkpt lat="45.86807671849834" lon="11.61854297131413"><ele>972.5</ele><time>2026-03-30T06:51:22.997Z</time></trkpt><trkpt lat="45.86817903250063" lon="11.618608288830503"><ele>972.0</ele><time>2026-03-30T06:51:23.997Z</time></trkpt><trkpt lat="45.868278694807806" lon="11.618665396158624"><ele>972.0</ele><time>2026-03-30T06:51:24.997Z</time></trkpt><trkpt lat="45.868376544884896" lon="11.618687654236924"><ele>972.0</ele><time>2026-03-30T06:51:25.997Z</time></trkpt><trkpt lat="45.868467531525056" lon="11.618685128266883"><ele>972.0</ele><time>2026-03-30T06:51:26.997Z</time></trkpt><trkpt lat="45.86855703653908" lon="11.618665778694846"><ele>972.0</ele><time>2026-03-30T06:51:27.997Z</time></trkpt><trkpt lat="45.86865370016551" lon="11.618654036588167"><ele>972.0</ele><time>2026-03-30T06:51:28.997Z</time></trkpt><trkpt lat="45.868759011632534" lon="11.618643313203139"><ele>973.4000000000001</ele><time>2026-03-30T06:51:29.997Z</time></trkpt><trkpt lat="45.868865044686636" lon="11.618658928743912"><ele>974.8000000000001</ele><time>2026-03-30T06:51:30.997Z</time></trkpt><trkpt lat="45.86896745672442" lon="11.618689926119016"><ele>976.2</ele><time>2026-03-30T06:51:31.997Z</time></trkpt><trkpt lat="45.86906977209053" lon="11.618716485113488"><ele>977.6</ele><time>2026-03-30T06:51:32.997Z</time></trkpt><trkpt lat="45.869176425426744" lon="11.618730272364902"><ele>979.0</ele><time>2026-03-30T06:51:33.997Z</time></trkpt><trkpt lat="45.86928714103028" lon="11.618737492204366"><ele>975.4000000000001</ele><time>2026-03-30T06:51:34.997Z</time></trkpt><trkpt lat="45.869389221793966" lon="11.618743057199904"><ele>971.8000000000001</ele><time>2026-03-30T06:51:35.997Z</time></trkpt><trkpt lat="45.869485603400896" lon="11.618761471141486"><ele>968.1999999999999</ele><time>2026-03-30T06:51:36.997Z</time></trkpt><trkpt lat="45.869578214785584" lon="11.618787426669666"><ele>964.5999999999999</ele><time>2026-03-30T06:51:37.997Z</time></trkpt><trkpt lat="45.86967722972302" lon="11.618794529444509"><ele>961.0</ele><time>2026-03-30T06:51:38.997Z</time></trkpt><trkpt lat="45.86978601374916" lon="11.618784038256704"><ele>961.0</ele><time>2026-03-30T06:51:39.997Z</time></trkpt><trkpt lat="45.86990357065044" lon="11.618756419577528"><ele>961.0</ele><time>2026-03-30T06:51:40.997Z</time></trkpt><trkpt lat="45.8700242938279" lon="11.618722829507034"><ele>961.0</ele><time>2026-03-30T06:51:41.997Z</time></trkpt><trkpt lat="45.87014648272286" lon="11.618690728690046"><ele>961.0</ele><time>2026-03-30T06:51:42.997Z</time></trkpt><trkpt lat="45.870270322544975" lon="11.61866859421948"><ele>956.1999999999999</ele><time>2026-03-30T06:51:43.997Z</time></trkpt><trkpt lat="45.870389413158065" lon="11.618668469515516"><ele>951.3999999999999</ele><time>2026-03-30T06:51:44.997Z</time></trkpt><trkpt lat="45.870504009264" lon="11.61867286795748"><ele>946.6</ele><time>2026-03-30T06:51:45.997Z</time></trkpt><trkpt lat="45.870606613066315" lon="11.618637834136415"><ele>941.8</ele><time>2026-03-30T06:51:46.997Z</time></trkpt><trkpt lat="45.870699985233195" lon="11.618564744941589"><ele>937.0</ele><time>2026-03-30T06:51:47.997Z</time></trkpt><trkpt lat="45.8707853772275" lon="11.61847909917743"><ele>942.2</ele><time>2026-03-30T06:51:48.997Z</time></trkpt><trkpt lat="45.87087530030739" lon="11.61839441143004"><ele>947.4000000000001</ele><time>2026-03-30T06:51:49.997Z</time></trkpt><trkpt lat="45.87097269912426" lon="11.618329430211523"><ele>952.5999999999999</ele><time>2026-03-30T06:51:50.997Z</time></trkpt><trkpt lat="45.87107684459621" lon="11.618288114189102"><ele>957.8</ele><time>2026-03-30T06:51:51.997Z</time></trkpt><trkpt lat="45.87118494964944" lon="11.618253218048615"><ele>963.0</ele><time>2026-03-30T06:51:52.997Z</time></trkpt><trkpt lat="45.871312031857556" lon="11.618185605150309"><ele>963.0</ele><time>2026-03-30T06:51:53.997Z</time></trkpt><trkpt lat="45.87143265279086" lon="11.618132889210948"><ele>963.0</ele><time>2026-03-30T06:51:54.997Z</time></trkpt><trkpt lat="45.87155875026019" lon="11.618070085462605"><ele>963.0</ele><time>2026-03-30T06:51:55.997Z</time></trkpt><trkpt lat="45.87169111667575" lon="11.618000166908026"><ele>963.0</ele><time>2026-03-30T06:51:56.997Z</time></trkpt><trkpt lat="45.8718190327905" lon="11.617913446254342"><ele>965.75</ele><time>2026-03-30T06:51:57.997Z</time></trkpt><trkpt lat="45.87194934124364" lon="11.617813378833942"><ele>968.5</ele><time>2026-03-30T06:51:58.997Z</time></trkpt><trkpt lat="45.87207783744087" lon="11.617708056728015"><ele>971.25</ele><time>2026-03-30T06:51:59.997Z</time></trkpt><trkpt lat="45.872210234973394" lon="11.617603182902402"><ele>974.0</ele><time>2026-03-30T06:52:00.997Z</time></trkpt><trkpt lat="45.87234950870364" lon="11.617508649571155"><ele>974.0</ele><time>2026-03-30T06:52:01.997Z</time></trkpt><trkpt lat="45.87249126079009" lon="11.617425991271224"><ele>974.0</ele><time>2026-03-30T06:52:02.997Z</time></trkpt><trkpt lat="45.87264492858574" lon="11.617363119381464"><ele>974.0</ele><time>2026-03-30T06:52:03.997Z</time></trkpt><trkpt lat="45.872799282500296" lon="11.617315799908518"><ele>970.75</ele><time>2026-03-30T06:52:04.997Z</time></trkpt><trkpt lat="45.872953159310654" lon="11.61728352169581"><ele>967.5</ele><time>2026-03-30T06:52:05.997Z</time></trkpt><trkpt lat="45.87309940120385" lon="11.61726359996518"><ele>964.25</ele><time>2026-03-30T06:52:06.997Z</time></trkpt><trkpt lat="45.87323568087933" lon="11.617266645969726"><ele>961.0</ele><time>2026-03-30T06:52:07.997Z</time></trkpt><trkpt lat="45.87335938026814" lon="11.617287036163795"><ele>961.0</ele><time>2026-03-30T06:52:08.997Z</time></trkpt><trkpt lat="45.87347443691567" lon="11.61734569122603"><ele>960.9999999999999</ele><time>2026-03-30T06:52:09.997Z</time></trkpt><trkpt lat="45.87356641724131" lon="11.617425906981003"><ele>960.9999999999999</ele><time>2026-03-30T06:52:10.997Z</time></trkpt><trkpt lat="45.87362984919478" lon="11.61753502504825"><ele>961.0</ele><time>2026-03-30T06:52:11.997Z</time></trkpt><trkpt lat="45.87370436617201" lon="11.617635295362655"><ele>961.0</ele><time>2026-03-30T06:52:12.997Z</time></trkpt><trkpt lat="45.873807117883004" lon="11.617701932354384"><ele>961.0</ele><time>2026-03-30T06:52:13.997Z</time></trkpt><trkpt lat="45.873905011533914" lon="11.617645811158843"><ele>960.9999999999999</ele><time>2026-03-30T06:52:14.997Z</time></trkpt><trkpt lat="45.87400877626144" lon="11.617621118382152"><ele>960.9999999999999</ele><time>2026-03-30T06:52:15.997Z</time></trkpt><trkpt lat="45.87411472254021" lon="11.617586264272225"><ele>961.0</ele><time>2026-03-30T06:52:16.997Z</time></trkpt><trkpt lat="45.87422225888286" lon="11.617581622405396"><ele>961.0</ele><time>2026-03-30T06:52:17.997Z</time></trkpt><trkpt lat="45.87433550228659" lon="11.617596319272549"><ele>955.0</ele><time>2026-03-30T06:52:18.997Z</time></trkpt><trkpt lat="45.87444993823174" lon="11.617601697035209"><ele>949.0</ele><time>2026-03-30T06:52:19.997Z</time></trkpt><trkpt lat="45.87456998526975" lon="11.61757000515315"><ele>943.0</ele><time>2026-03-30T06:52:20.997Z</time></trkpt><trkpt lat="45.87467101885722" lon="11.61746066395454"><ele>937.0</ele><time>2026-03-30T06:52:21.997Z</time></trkpt><trkpt lat="45.8747794225386" lon="11.617347429061017"><ele>937.0</ele><time>2026-03-30T06:52:22.997Z</time></trkpt><trkpt lat="45.87488431000402" lon="11.617218509611826"><ele>937.0</ele><time>2026-03-30T06:52:23.997Z</time></trkpt><trkpt lat="45.87500808961159" lon="11.61709303828441"><ele>937.0</ele><time>2026-03-30T06:52:24.997Z</time></trkpt><trkpt lat="45.875121030095926" lon="11.616951923036302"><ele>937.0</ele><time>2026-03-30T06:52:25.997Z</time></trkpt><trkpt lat="45.87520744418651" lon="11.616792456974574"><ele>933.75</ele><time>2026-03-30T06:52:26.997Z</time></trkpt><trkpt lat="45.875267659526976" lon="11.616643422512581"><ele>930.5</ele><time>2026-03-30T06:52:27.997Z</time></trkpt><trkpt lat="45.875298024227526" lon="11.616479908723045"><ele>927.25</ele><time>2026-03-30T06:52:28.997Z</time></trkpt><trkpt lat="45.875288820811775" lon="11.616312840859996"><ele>924.0</ele><time>2026-03-30T06:52:29.997Z</time></trkpt><trkpt lat="45.875236485496174" lon="11.616151059434415"><ele>923.25</ele><time>2026-03-30T06:52:30.997Z</time></trkpt><trkpt lat="45.87516058617175" lon="11.616002324322555"><ele>922.5</ele><time>2026-03-30T06:52:31.997Z</time></trkpt><trkpt lat="45.875078807416955" lon="11.61584678106825"><ele>921.75</ele><time>2026-03-30T06:52:32.997Z</time></trkpt><trkpt lat="45.87502196946554" lon="11.61566634981637"><ele>921.0</ele><time>2026-03-30T06:52:33.997Z</time></trkpt><trkpt lat="45.874991188810775" lon="11.615468976293183"><ele>923.5</ele><time>2026-03-30T06:52:34.997Z</time></trkpt><trkpt lat="45.87498467154855" lon="11.615276150439506"><ele>926.0</ele><time>2026-03-30T06:52:35.997Z</time></trkpt><trkpt lat="45.8749681167403" lon="11.615102327531375"><ele>928.5</ele><time>2026-03-30T06:52:36.997Z</time></trkpt><trkpt lat="45.874926962736076" lon="11.614947810044113"><ele>931.0</ele><time>2026-03-30T06:52:37.997Z</time></trkpt><trkpt lat="45.874871293111916" lon="11.614808861221178"><ele>931.0</ele><time>2026-03-30T06:52:38.997Z</time></trkpt><trkpt lat="45.87479299127688" lon="11.614709110925"><ele>930.9999999999999</ele><time>2026-03-30T06:52:39.997Z</time></trkpt><trkpt lat="45.87469789428934" lon="11.614656197319173"><ele>930.9999999999999</ele><time>2026-03-30T06:52:40.997Z</time></trkpt><trkpt lat="45.874604079021786" lon="11.614619073173786"><ele>931.0</ele><time>2026-03-30T06:52:41.997Z</time></trkpt><trkpt lat="45.87453055784315" lon="11.61454842210079"><ele>931.0</ele><time>2026-03-30T06:52:42.997Z</time></trkpt><trkpt lat="45.87448728991701" lon="11.614435440660607"><ele>927.0</ele><time>2026-03-30T06:52:43.997Z</time></trkpt><trkpt lat="45.87448530695192" lon="11.614287826423677"><ele>923.0</ele><time>2026-03-30T06:52:44.997Z</time></trkpt><trkpt lat="45.87449603334697" lon="11.614116365182179"><ele>919.0</ele><time>2026-03-30T06:52:45.997Z</time></trkpt><trkpt lat="45.87451386617823" lon="11.613939116697965"><ele>915.0</ele><time>2026-03-30T06:52:46.997Z</time></trkpt><trkpt lat="45.874546029985154" lon="11.613762988390608"><ele>912.8</ele><time>2026-03-30T06:52:47.997Z</time></trkpt><trkpt lat="45.87458515978344" lon="11.613604558418407"><ele>910.6</ele><time>2026-03-30T06:52:48.997Z</time></trkpt><trkpt lat="45.874613129776044" lon="11.613459219122403"><ele>908.4000000000001</ele><time>2026-03-30T06:52:49.997Z</time></trkpt><trkpt lat="45.87461140342218" lon="11.613315189778515"><ele>906.2</ele><time>2026-03-30T06:52:50.997Z</time></trkpt><trkpt lat="45.874562113605414" lon="11.613187169603245"><ele>904.0</ele><time>2026-03-30T06:52:51.997Z</time></trkpt><trkpt lat="45.874477778876" lon="11.613089481128345"><ele>904.0</ele><time>2026-03-30T06:52:52.997Z</time></trkpt><trkpt lat="45.87438545325913" lon="11.613014313199793"><ele>904.0000000000001</ele><time>2026-03-30T06:52:53.997Z</time></trkpt><trkpt lat="45.87429415453293" lon="11.612929142452375"><ele>904.0000000000001</ele><time>2026-03-30T06:52:54.997Z</time></trkpt><trkpt lat="45.87422529451559" lon="11.612816036246791"><ele>904.0</ele><time>2026-03-30T06:52:55.997Z</time></trkpt><trkpt lat="45.87418410058149" lon="11.612673312621217"><ele>904.0</ele><time>2026-03-30T06:52:56.997Z</time></trkpt><trkpt lat="45.874166876474845" lon="11.612515855246494"><ele>904.8000000000001</ele><time>2026-03-30T06:52:57.997Z</time></trkpt><trkpt lat="45.874171483106544" lon="11.612353322137063"><ele>905.6000000000001</ele><time>2026-03-30T06:52:58.997Z</time></trkpt><trkpt lat="45.874194052732726" lon="11.612207717534059"><ele>906.4</ele><time>2026-03-30T06:52:59.997Z</time></trkpt><trkpt lat="45.874214100387434" lon="11.612077355766791"><ele>907.2</ele><time>2026-03-30T06:53:00.997Z</time></trkpt><trkpt lat="45.87421117855766" lon="11.611951277840749"><ele>908.0</ele><time>2026-03-30T06:53:01.997Z</time></trkpt><trkpt lat="45.87417980932696" lon="11.611833218608446"><ele>908.0000000000001</ele><time>2026-03-30T06:53:02.997Z</time></trkpt><trkpt lat="45.874109171675954" lon="11.611744821008916"><ele>908.0</ele><time>2026-03-30T06:53:03.997Z</time></trkpt><trkpt lat="45.87403890692376" lon="11.611656950615734"><ele>908.0</ele><time>2026-03-30T06:53:04.997Z</time></trkpt><trkpt lat="45.87397705729891" lon="11.61157059423209"><ele>908.0</ele><time>2026-03-30T06:53:05.997Z</time></trkpt><trkpt lat="45.87393656827265" lon="11.611468624410712"><ele>908.0000000000001</ele><time>2026-03-30T06:53:06.997Z</time></trkpt><trkpt lat="45.87393596100186" lon="11.611364410660187"><ele>908.0</ele><time>2026-03-30T06:53:07.997Z</time></trkpt><trkpt lat="45.87396927737836" lon="11.611282947363188"><ele>908.0000000000001</ele><time>2026-03-30T06:53:08.997Z</time></trkpt><trkpt lat="45.87403123865702" lon="11.611234710631326"><ele>908.0</ele><time>2026-03-30T06:53:09.997Z</time></trkpt><trkpt lat="45.87410777193325" lon="11.6112821659364"><ele>908.0</ele><time>2026-03-30T06:53:10.997Z</time></trkpt><trkpt lat="45.87419143760056" lon="11.611279975118846"><ele>908.0</ele><time>2026-03-30T06:53:11.997Z</time></trkpt><trkpt lat="45.87427807906341" lon="11.611315940683228"><ele>908.0000000000001</ele><time>2026-03-30T06:53:12.997Z</time></trkpt><trkpt lat="45.87436983708667" lon="11.611348265849786"><ele>908.0</ele><time>2026-03-30T06:53:13.997Z</time></trkpt><trkpt lat="45.87446573571958" lon="11.611374088294161"><ele>907.5999999999999</ele><time>2026-03-30T06:53:14.997Z</time></trkpt><trkpt lat="45.87456532742501" lon="11.611395896425497"><ele>907.1999999999999</ele><time>2026-03-30T06:53:15.997Z</time></trkpt><trkpt lat="45.87466239771066" lon="11.611429924388768"><ele>906.8</ele><time>2026-03-30T06:53:16.997Z</time></trkpt><trkpt lat="45.87476677673272" lon="11.611407153736007"><ele>906.4</ele><time>2026-03-30T06:53:17.997Z</time></trkpt><trkpt lat="45.87486975720785" lon="11.611354836462512"><ele>906.0</ele><time>2026-03-30T06:53:18.997Z</time></trkpt><trkpt lat="45.874972288839466" lon="11.611319409432962"><ele>906.0</ele><time>2026-03-30T06:53:19.997Z</time></trkpt><trkpt lat="45.87508148767469" lon="11.611303051626532"><ele>906.0</ele><time>2026-03-30T06:53:20.997Z</time></trkpt><trkpt lat="45.875195664286224" lon="11.611313474764703"><ele>906.0</ele><time>2026-03-30T06:53:21.997Z</time></trkpt><trkpt lat="45.875319021478724" lon="11.61130565235188"><ele>906.0</ele><time>2026-03-30T06:53:22.997Z</time></trkpt><trkpt lat="45.87543580169892" lon="11.61134460287172"><ele>908.0</ele><time>2026-03-30T06:53:23.997Z</time></trkpt><trkpt lat="45.87554915201137" lon="11.61134991561339"><ele>909.9999999999999</ele><time>2026-03-30T06:53:24.997Z</time></trkpt><trkpt lat="45.87563505320514" lon="11.611435311833015"><ele>911.9999999999999</ele><time>2026-03-30T06:53:25.996Z</time></trkpt><trkpt lat="45.87571214109714" lon="11.611519944595662"><ele>914.0</ele><time>2026-03-30T06:53:26.996Z</time></trkpt><trkpt lat="45.87578544442365" lon="11.611617374766034"><ele>916.0</ele><time>2026-03-30T06:53:27.996Z</time></trkpt><trkpt lat="45.87584190515218" lon="11.61173464038539"><ele>916.0</ele><time>2026-03-30T06:53:28.996Z</time></trkpt><trkpt lat="45.87592867159592" lon="11.611839974124251"><ele>916.0</ele><time>2026-03-30T06:53:29.996Z</time></trkpt><trkpt lat="45.87602450315111" lon="11.61192566236779"><ele>916.0</ele><time>2026-03-30T06:53:30.996Z</time></trkpt><trkpt lat="45.87611601093222" lon="11.612025239157445"><ele>916.0</ele><time>2026-03-30T06:53:31.996Z</time></trkpt><trkpt lat="45.8762217328036" lon="11.612112999477947"><ele>917.0</ele><time>2026-03-30T06:53:32.996Z</time></trkpt><trkpt lat="45.87632882445489" lon="11.612203438850537"><ele>918.0</ele><time>2026-03-30T06:53:33.996Z</time></trkpt><trkpt lat="45.87643630769022" lon="11.612293195469839"><ele>919.0</ele><time>2026-03-30T06:53:34.996Z</time></trkpt><trkpt lat="45.8765414997361" lon="11.612382513248319"><ele>920.0</ele><time>2026-03-30T06:53:35.996Z</time></trkpt><trkpt lat="45.876639882838305" lon="11.612464033396908"><ele>920.0</ele><time>2026-03-30T06:53:36.996Z</time></trkpt><trkpt lat="45.87673395397484" lon="11.612540393192242"><ele>920.0</ele><time>2026-03-30T06:53:37.996Z</time></trkpt><trkpt lat="45.876824645703664" lon="11.61260056741756"><ele>920.0</ele><time>2026-03-30T06:53:38.996Z</time></trkpt><trkpt lat="45.87691749511045" lon="11.61264241016385"><ele>920.0</ele><time>2026-03-30T06:53:39.996Z</time></trkpt><trkpt lat="45.8770190184164" lon="11.61266809967651"><ele>920.0</ele><time>2026-03-30T06:53:40.996Z</time></trkpt><trkpt lat="45.87713089029618" lon="11.612677294600868"><ele>922.2</ele><time>2026-03-30T06:53:41.996Z</time></trkpt><trkpt lat="45.87724363940887" lon="11.612682670798256"><ele>924.4</ele><time>2026-03-30T06:53:42.996Z</time></trkpt><trkpt lat="45.877358674697476" lon="11.612688909233272"><ele>926.5999999999999</ele><time>2026-03-30T06:53:43.996Z</time></trkpt><trkpt lat="45.87747205137819" lon="11.612703586136917"><ele>928.8</ele><time>2026-03-30T06:53:44.996Z</time></trkpt><trkpt lat="45.877572691290446" lon="11.61274006235358"><ele>931.0</ele><time>2026-03-30T06:53:45.996Z</time></trkpt><trkpt lat="45.87766117696715" lon="11.612801434257664"><ele>930.5999999999999</ele><time>2026-03-30T06:53:46.996Z</time></trkpt><trkpt lat="45.877743166747074" lon="11.612896152733686"><ele>930.1999999999999</ele><time>2026-03-30T06:53:47.996Z</time></trkpt><trkpt lat="45.877823556313345" lon="11.61299112684048"><ele>929.8000000000001</ele><time>2026-03-30T06:53:48.996Z</time></trkpt><trkpt lat="45.87789707196608" lon="11.613086340606579"><ele>929.4000000000001</ele><time>2026-03-30T06:53:49.996Z</time></trkpt><trkpt lat="45.877964077858095" lon="11.613159659495581"><ele>929.0</ele><time>2026-03-30T06:53:50.996Z</time></trkpt><trkpt lat="45.878029736008315" lon="11.61319112076913"><ele>929.0000000000001</ele><time>2026-03-30T06:53:51.996Z</time></trkpt><trkpt lat="45.87815539929853" lon="11.61315796879471"><ele>929.0</ele><time>2026-03-30T06:53:53.996Z</time></trkpt><trkpt lat="45.878220803715955" lon="11.613106422759978"><ele>929.0</ele><time>2026-03-30T06:53:54.996Z</time></trkpt><trkpt lat="45.878293036202834" lon="11.61306991039934"><ele>929.0</ele><time>2026-03-30T06:53:55.996Z</time></trkpt><trkpt lat="45.87837174862922" lon="11.613050283969505"><ele>929.0000000000001</ele><time>2026-03-30T06:53:56.996Z</time></trkpt><trkpt lat="45.87844969895108" lon="11.613022961157645"><ele>929.0</ele><time>2026-03-30T06:53:57.996Z</time></trkpt><trkpt lat="45.8785128288163" lon="11.61298950697609"><ele>929.75</ele><time>2026-03-30T06:53:58.996Z</time></trkpt><trkpt lat="45.878608507292384" lon="11.612943148295686"><ele>930.5</ele><time>2026-03-30T06:54:00.996Z</time></trkpt><trkpt lat="45.878572324898414" lon="11.61270342222414"><ele>931.25</ele><time>2026-03-30T06:54:03.996Z</time></trkpt><trkpt lat="45.87855447541144" lon="11.612566042167288"><ele>932.0</ele><time>2026-03-30T06:54:05.996Z</time></trkpt><trkpt lat="45.878503651927566" lon="11.612452259032104"><ele>932.0</ele><time>2026-03-30T06:54:09.996Z</time></trkpt><trkpt lat="45.87847641121258" lon="11.6123179476134"><ele>932.0</ele><time>2026-03-30T06:54:11.996Z</time></trkpt><trkpt lat="45.87851125115502" lon="11.612134127736956"><ele>932.0</ele><time>2026-03-30T06:54:14.996Z</time></trkpt><trkpt lat="45.878555764277486" lon="11.612053628688733"><ele>932.0</ele><time>2026-03-30T06:54:15.996Z</time></trkpt><trkpt lat="45.87859839085848" lon="11.611959907241166"><ele>932.0</ele><time>2026-03-30T06:54:16.996Z</time></trkpt><trkpt lat="45.87864499200198" lon="11.611862840365099"><ele>932.4000000000001</ele><time>2026-03-30T06:54:17.996Z</time></trkpt><trkpt lat="45.87869569194047" lon="11.611755041102333"><ele>932.8000000000001</ele><time>2026-03-30T06:54:18.996Z</time></trkpt><trkpt lat="45.87874766271584" lon="11.611631541700167"><ele>933.2</ele><time>2026-03-30T06:54:19.996Z</time></trkpt><trkpt lat="45.87880611638298" lon="11.611497506248154"><ele>933.6</ele><time>2026-03-30T06:54:20.996Z</time></trkpt><trkpt lat="45.87887592619985" lon="11.61136056730062"><ele>934.0</ele><time>2026-03-30T06:54:21.996Z</time></trkpt><trkpt lat="45.878942927383655" lon="11.61123456557655"><ele>931.75</ele><time>2026-03-30T06:54:22.996Z</time></trkpt><trkpt lat="45.879012619570155" lon="11.611097734581106"><ele>929.5</ele><time>2026-03-30T06:54:23.996Z</time></trkpt><trkpt lat="45.879098688114915" lon="11.610958521085646"><ele>927.25</ele><time>2026-03-30T06:54:24.996Z</time></trkpt><trkpt lat="45.8791959984378" lon="11.610831032515597"><ele>925.0</ele><time>2026-03-30T06:54:25.996Z</time></trkpt><trkpt lat="45.879298961012665" lon="11.610696677352099"><ele>925.0</ele><time>2026-03-30T06:54:26.996Z</time></trkpt><trkpt lat="45.87940871916848" lon="11.610563233990687"><ele>925.0</ele><time>2026-03-30T06:54:27.996Z</time></trkpt><trkpt lat="45.87951904214813" lon="11.61043616520248"><ele>925.0</ele><time>2026-03-30T06:54:28.996Z</time></trkpt><trkpt lat="45.87962153173688" lon="11.610309622865403"><ele>925.0</ele><time>2026-03-30T06:54:29.996Z</time></trkpt><trkpt lat="45.87971758631851" lon="11.610180047285867"><ele>930.75</ele><time>2026-03-30T06:54:30.996Z</time></trkpt><trkpt lat="45.87981657153864" lon="11.610049021200739"><ele>936.5</ele><time>2026-03-30T06:54:31.996Z</time></trkpt><trkpt lat="45.8799109536114" lon="11.609913967215533"><ele>942.25</ele><time>2026-03-30T06:54:32.996Z</time></trkpt><trkpt lat="45.88000177202925" lon="11.609770611791955"><ele>948.0</ele><time>2026-03-30T06:54:33.996Z</time></trkpt><trkpt lat="45.88008420690326" lon="11.609621780019825"><ele>945.75</ele><time>2026-03-30T06:54:34.996Z</time></trkpt><trkpt lat="45.88016241710443" lon="11.609462516757485"><ele>943.5</ele><time>2026-03-30T06:54:35.996Z</time></trkpt><trkpt lat="45.88022658404427" lon="11.609298232547731"><ele>941.25</ele><time>2026-03-30T06:54:36.996Z</time></trkpt><trkpt lat="45.88028163513207" lon="11.609131040234884"><ele>939.0</ele><time>2026-03-30T06:54:37.996Z</time></trkpt><trkpt lat="45.88033200086533" lon="11.608966570722252"><ele>939.0</ele><time>2026-03-30T06:54:38.996Z</time></trkpt><trkpt lat="45.88037242455888" lon="11.608801155379217"><ele>939.0</ele><time>2026-03-30T06:54:39.996Z</time></trkpt><trkpt lat="45.880397432474524" lon="11.608624043669543"><ele>939.0</ele><time>2026-03-30T06:54:40.996Z</time></trkpt><trkpt lat="45.88041177803815" lon="11.608447590401903"><ele>939.0</ele><time>2026-03-30T06:54:41.996Z</time></trkpt><trkpt lat="45.88040095681554" lon="11.608267478384187"><ele>940.25</ele><time>2026-03-30T06:54:42.996Z</time></trkpt><trkpt lat="45.88037242590779" lon="11.60809134884172"><ele>941.5</ele><time>2026-03-30T06:54:43.996Z</time></trkpt><trkpt lat="45.88033967578782" lon="11.607912257393513"><ele>942.75</ele><time>2026-03-30T06:54:44.996Z</time></trkpt><trkpt lat="45.88030643391785" lon="11.607727853514085"><ele>944.0</ele><time>2026-03-30T06:54:45.996Z</time></trkpt><trkpt lat="45.880273022558356" lon="11.6075407117404"><ele>944.0</ele><time>2026-03-30T06:54:46.996Z</time></trkpt><trkpt lat="45.88023307903944" lon="11.60735455024839"><ele>944.0</ele><time>2026-03-30T06:54:47.996Z</time></trkpt><trkpt lat="45.88019172137228" lon="11.607164285963666"><ele>944.0</ele><time>2026-03-30T06:54:48.996Z</time></trkpt><trkpt lat="45.88014866747395" lon="11.606977350131192"><ele>944.0</ele><time>2026-03-30T06:54:49.996Z</time></trkpt><trkpt lat="45.88009754084037" lon="11.606792903710105"><ele>952.5</ele><time>2026-03-30T06:54:50.996Z</time></trkpt><trkpt lat="45.880058357409226" lon="11.606607558517352"><ele>961.0</ele><time>2026-03-30T06:54:51.996Z</time></trkpt><trkpt lat="45.88001906494303" lon="11.606419108966222"><ele>969.5</ele><time>2026-03-30T06:54:52.996Z</time></trkpt><trkpt lat="45.87998132201403" lon="11.606232508415614"><ele>978.0</ele><time>2026-03-30T06:54:53.996Z</time></trkpt><trkpt lat="45.87994315756007" lon="11.60604388074916"><ele>978.0</ele><time>2026-03-30T06:54:54.996Z</time></trkpt><trkpt lat="45.87990377648926" lon="11.605857552174172"><ele>978.0</ele><time>2026-03-30T06:54:55.996Z</time></trkpt><trkpt lat="45.87986218538063" lon="11.605676635416183"><ele>978.0</ele><time>2026-03-30T06:54:56.996Z</time></trkpt><trkpt lat="45.879842121738704" lon="11.605494530202597"><ele>978.0</ele><time>2026-03-30T06:54:57.996Z</time></trkpt><trkpt lat="45.879788824598464" lon="11.605311218904061"><ele>975.75</ele><time>2026-03-30T06:54:58.996Z</time></trkpt><trkpt lat="45.87973141873208" lon="11.605131456704225"><ele>973.5</ele><time>2026-03-30T06:54:59.996Z</time></trkpt><trkpt lat="45.87967590323676" lon="11.604952656307578"><ele>971.25</ele><time>2026-03-30T06:55:00.996Z</time></trkpt><trkpt lat="45.87962346799437" lon="11.604777561782948"><ele>969.0</ele><time>2026-03-30T06:55:01.996Z</time></trkpt><trkpt lat="45.87957349704699" lon="11.604612822274655"><ele>968.75</ele><time>2026-03-30T06:55:02.996Z</time></trkpt><trkpt lat="45.87951688657945" lon="11.604456850218716"><ele>968.5</ele><time>2026-03-30T06:55:03.996Z</time></trkpt><trkpt lat="45.879443344395675" lon="11.604302529605619"><ele>968.25</ele><time>2026-03-30T06:55:04.996Z</time></trkpt><trkpt lat="45.87935775466287" lon="11.604157754953098"><ele>968.0</ele><time>2026-03-30T06:55:05.996Z</time></trkpt><trkpt lat="45.879279019160876" lon="11.604013778188119"><ele>973.8</ele><time>2026-03-30T06:55:06.996Z</time></trkpt><trkpt lat="45.87919746226077" lon="11.603881119612799"><ele>979.5999999999999</ele><time>2026-03-30T06:55:07.996Z</time></trkpt><trkpt lat="45.87913168985199" lon="11.603755122546964"><ele>985.4000000000001</ele><time>2026-03-30T06:55:08.996Z</time></trkpt><trkpt lat="45.87907981110771" lon="11.603621292165348"><ele>991.2</ele><time>2026-03-30T06:55:09.996Z</time></trkpt><trkpt lat="45.87901141600539" lon="11.603529391177336"><ele>997.0</ele><time>2026-03-30T06:55:10.996Z</time></trkpt><trkpt lat="45.87894681741414" lon="11.603454259389977"><ele>997.0</ele><time>2026-03-30T06:55:11.996Z</time></trkpt><trkpt lat="45.87888889199497" lon="11.603379102110521"><ele>997.0</ele><time>2026-03-30T06:55:12.996Z</time></trkpt><trkpt lat="45.87884791346473" lon="11.603193234100882"><ele>997.0</ele><time>2026-03-30T06:55:14.996Z</time></trkpt><trkpt lat="45.87889823065245" lon="11.603104482765094"><ele>997.0</ele><time>2026-03-30T06:55:15.996Z</time></trkpt><trkpt lat="45.87896901970357" lon="11.603048895581061"><ele>997.0</ele><time>2026-03-30T06:55:16.996Z</time></trkpt><trkpt lat="45.8790644748648" lon="11.60300408557157"><ele>997.0</ele><time>2026-03-30T06:55:17.996Z</time></trkpt><trkpt lat="45.87916594268995" lon="11.602971688690033"><ele>997.0</ele><time>2026-03-30T06:55:18.996Z</time></trkpt><trkpt lat="45.879277698037484" lon="11.602976298090843"><ele>997.0</ele><time>2026-03-30T06:55:19.996Z</time></trkpt><trkpt lat="45.879391983256895" lon="11.60298911570405"><ele>997.0</ele><time>2026-03-30T06:55:20.996Z</time></trkpt><trkpt lat="45.879513950346876" lon="11.603009297648308"><ele>995.25</ele><time>2026-03-30T06:55:21.996Z</time></trkpt><trkpt lat="45.87963936882514" lon="11.60302188937242"><ele>993.5</ele><time>2026-03-30T06:55:22.996Z</time></trkpt><trkpt lat="45.87975426950558" lon="11.603018613024462"><ele>991.75</ele><time>2026-03-30T06:55:23.996Z</time></trkpt><trkpt lat="45.87986399800299" lon="11.60300127383874"><ele>990.0</ele><time>2026-03-30T06:55:24.996Z</time></trkpt><trkpt lat="45.879965137643225" lon="11.602995135902551"><ele>990.0</ele><time>2026-03-30T06:55:25.996Z</time></trkpt><trkpt lat="45.88004957461317" lon="11.603026269055173"><ele>990.0</ele><time>2026-03-30T06:55:26.996Z</time></trkpt><trkpt lat="45.88010996461803" lon="11.603102308132234"><ele>990.0</ele><time>2026-03-30T06:55:27.996Z</time></trkpt><trkpt lat="45.880185543890214" lon="11.603172679836044"><ele>990.0</ele><time>2026-03-30T06:55:28.996Z</time></trkpt><trkpt lat="45.880284995773906" lon="11.603205855266621"><ele>990.0</ele><time>2026-03-30T06:55:29.996Z</time></trkpt><trkpt lat="45.88039352937407" lon="11.603185730039472"><ele>992.8</ele><time>2026-03-30T06:55:30.995Z</time></trkpt><trkpt lat="45.88049294336657" lon="11.603129261621806"><ele>995.6</ele><time>2026-03-30T06:55:31.995Z</time></trkpt><trkpt lat="45.880586162917034" lon="11.603057297082938"><ele>998.4000000000001</ele><time>2026-03-30T06:55:32.995Z</time></trkpt><trkpt lat="45.880670720508014" lon="11.603036685645534"><ele>1001.2</ele><time>2026-03-30T06:55:33.995Z</time></trkpt><trkpt lat="45.88075724351771" lon="11.603066253704235"><ele>1004.0</ele><time>2026-03-30T06:55:34.995Z</time></trkpt><trkpt lat="45.88083317986345" lon="11.603146237712773"><ele>1004.0</ele><time>2026-03-30T06:55:35.995Z</time></trkpt><trkpt lat="45.88089436033407" lon="11.603263994052911"><ele>1004.0000000000001</ele><time>2026-03-30T06:55:36.995Z</time></trkpt><trkpt lat="45.8809489685744" lon="11.603394923825023"><ele>1004.0000000000001</ele><time>2026-03-30T06:55:37.995Z</time></trkpt><trkpt lat="45.881005694565836" lon="11.603507849376012"><ele>1004.0</ele><time>2026-03-30T06:55:38.995Z</time></trkpt><trkpt lat="45.881079632896046" lon="11.603583112256272"><ele>1004.0</ele><time>2026-03-30T06:55:39.995Z</time></trkpt><trkpt lat="45.88116893380156" lon="11.603615327376996"><ele>1006.6</ele><time>2026-03-30T06:55:40.995Z</time></trkpt><trkpt lat="45.88126416470408" lon="11.603623168719757"><ele>1009.2</ele><time>2026-03-30T06:55:41.995Z</time></trkpt><trkpt lat="45.881366772749466" lon="11.603610857637841"><ele>1011.8000000000001</ele><time>2026-03-30T06:55:42.995Z</time></trkpt><trkpt lat="45.881471779086304" lon="11.603593962007814"><ele>1014.4000000000001</ele><time>2026-03-30T06:55:43.995Z</time></trkpt><trkpt lat="45.88157532622802" lon="11.603577151289336"><ele>1017.0</ele><time>2026-03-30T06:55:44.995Z</time></trkpt><trkpt lat="45.88167741432553" lon="11.603541874988121"><ele>1018.4000000000001</ele><time>2026-03-30T06:55:45.995Z</time></trkpt><trkpt lat="45.881777760253726" lon="11.603481584787684"><ele>1019.8000000000001</ele><time>2026-03-30T06:55:46.995Z</time></trkpt><trkpt lat="45.881873978207835" lon="11.60339057784076"><ele>1021.2</ele><time>2026-03-30T06:55:47.995Z</time></trkpt><trkpt lat="45.88196225430665" lon="11.603295320011751"><ele>1022.6</ele><time>2026-03-30T06:55:48.995Z</time></trkpt><trkpt lat="45.8820518329588" lon="11.603191946350693"><ele>1024.0</ele><time>2026-03-30T06:55:49.995Z</time></trkpt><trkpt lat="45.882142034443106" lon="11.603089985221347"><ele>1023.9999999999999</ele><time>2026-03-30T06:55:50.995Z</time></trkpt><trkpt lat="45.88222469811971" lon="11.602998918645454"><ele>1024.0</ele><time>2026-03-30T06:55:51.995Z</time></trkpt><trkpt lat="45.882294557466814" lon="11.602910058973583"><ele>1024.0</ele><time>2026-03-30T06:55:52.995Z</time></trkpt><trkpt lat="45.882352088926005" lon="11.602837245705443"><ele>1024.0</ele><time>2026-03-30T06:55:53.995Z</time></trkpt><trkpt lat="45.88242054145747" lon="11.602801928682677"><ele>1023.9999999999999</ele><time>2026-03-30T06:55:54.995Z</time></trkpt><trkpt lat="45.88249970510372" lon="11.602805675869933"><ele>1024.0</ele><time>2026-03-30T06:55:55.995Z</time></trkpt><trkpt lat="45.88257407489239" lon="11.602861607790329"><ele>1027.2</ele><time>2026-03-30T06:55:56.995Z</time></trkpt><trkpt lat="45.88263063032065" lon="11.602961282711496"><ele>1030.4</ele><time>2026-03-30T06:55:57.995Z</time></trkpt><trkpt lat="45.88267373765133" lon="11.603089001932426"><ele>1033.6</ele><time>2026-03-30T06:55:58.995Z</time></trkpt><trkpt lat="45.88271444367381" lon="11.603223862002276"><ele>1036.8</ele><time>2026-03-30T06:55:59.995Z</time></trkpt><trkpt lat="45.88275301919637" lon="11.60334765007295"><ele>1040.0</ele><time>2026-03-30T06:56:00.995Z</time></trkpt><trkpt lat="45.88278777078426" lon="11.603471567865984"><ele>1040.0</ele><time>2026-03-30T06:56:01.995Z</time></trkpt><trkpt lat="45.88283100137843" lon="11.603576841195094"><ele>1040.0</ele><time>2026-03-30T06:56:02.995Z</time></trkpt><trkpt lat="45.88288612958207" lon="11.603658017887938"><ele>1040.0</ele><time>2026-03-30T06:56:03.995Z</time></trkpt><trkpt lat="45.88295926649494" lon="11.603710875486298"><ele>1040.0</ele><time>2026-03-30T06:56:04.995Z</time></trkpt><trkpt lat="45.88304741520765" lon="11.603740005423877"><ele>1040.0</ele><time>2026-03-30T06:56:05.995Z</time></trkpt><trkpt lat="45.883138274112234" lon="11.603738626378574"><ele>1040.0</ele><time>2026-03-30T06:56:06.995Z</time></trkpt><trkpt lat="45.88323422603576" lon="11.603717889321278"><ele>1040.0</ele><time>2026-03-30T06:56:07.995Z</time></trkpt><trkpt lat="45.883329252322454" lon="11.603684665744753"><ele>1040.0</ele><time>2026-03-30T06:56:08.995Z</time></trkpt><trkpt lat="45.8834176034692" lon="11.603645326026008"><ele>1040.0</ele><time>2026-03-30T06:56:09.995Z</time></trkpt><trkpt lat="45.8834992319501" lon="11.603594413556362"><ele>1040.0</ele><time>2026-03-30T06:56:10.995Z</time></trkpt><trkpt lat="45.88357872237502" lon="11.60353605861473"><ele>1040.0</ele><time>2026-03-30T06:56:11.995Z</time></trkpt><trkpt lat="45.88365521261259" lon="11.603449681606167"><ele>1037.2</ele><time>2026-03-30T06:56:12.995Z</time></trkpt><trkpt lat="45.88371612442441" lon="11.60336167204136"><ele>1034.4</ele><time>2026-03-30T06:56:13.995Z</time></trkpt><trkpt lat="45.88377011972284" lon="11.603288154963822"><ele>1031.6</ele><time>2026-03-30T06:56:14.995Z</time></trkpt><trkpt lat="45.88382086842653" lon="11.603130954893949"><ele>1028.8</ele><time>2026-03-30T06:56:16.995Z</time></trkpt><trkpt lat="45.883761702200644" lon="11.603046866954104"><ele>1026.0</ele><time>2026-03-30T06:56:17.995Z</time></trkpt><trkpt lat="45.88365965395486" lon="11.603093703777176"><ele>1026.0</ele><time>2026-03-30T06:56:18.995Z</time></trkpt><trkpt lat="45.883570064672355" lon="11.60312013328916"><ele>1026.0</ele><time>2026-03-30T06:56:19.995Z</time></trkpt><trkpt lat="45.88348571928903" lon="11.60312948141061"><ele>1026.0</ele><time>2026-03-30T06:56:20.995Z</time></trkpt><trkpt lat="45.88341790447992" lon="11.603079683696823"><ele>1026.0</ele><time>2026-03-30T06:56:21.995Z</time></trkpt><trkpt lat="45.883345959119055" lon="11.603028238204763"><ele>1026.0</ele><time>2026-03-30T06:56:22.995Z</time></trkpt><trkpt lat="45.88327700527458" lon="11.602976793959247"><ele>1026.0</ele><time>2026-03-30T06:56:23.995Z</time></trkpt><trkpt lat="45.883209662180406" lon="11.602916927083461"><ele>1028.0000000000002</ele><time>2026-03-30T06:56:24.995Z</time></trkpt><trkpt lat="45.883155165296294" lon="11.602849459341561"><ele>1030.0</ele><time>2026-03-30T06:56:25.995Z</time></trkpt><trkpt lat="45.88311153053214" lon="11.602771433098335"><ele>1032.0</ele><time>2026-03-30T06:56:26.995Z</time></trkpt><trkpt lat="45.88306925928724" lon="11.602695527511017"><ele>1034.0</ele><time>2026-03-30T06:56:27.995Z</time></trkpt><trkpt lat="45.88303997158694" lon="11.602594797046013"><ele>1036.0</ele><time>2026-03-30T06:56:28.995Z</time></trkpt><trkpt lat="45.8830124059657" lon="11.60249060570904"><ele>1038.0000000000002</ele><time>2026-03-30T06:56:29.995Z</time></trkpt><trkpt lat="45.882994130018126" lon="11.60239760799183"><ele>1040.0</ele><time>2026-03-30T06:56:30.995Z</time></trkpt><trkpt lat="45.88298781049546" lon="11.602301063407362"><ele>1041.5</ele><time>2026-03-30T06:56:31.995Z</time></trkpt><trkpt lat="45.883002452529325" lon="11.60213537595272"><ele>1043.0</ele><time>2026-03-30T06:56:33.995Z</time></trkpt><trkpt lat="45.88307696748682" lon="11.602035796820163"><ele>1044.5</ele><time>2026-03-30T06:56:35.995Z</time></trkpt><trkpt lat="45.883168308801366" lon="11.602002003900935"><ele>1046.0</ele><time>2026-03-30T06:56:37.995Z</time></trkpt><trkpt lat="45.883233982443834" lon="11.602007078908885"><ele>1047.5</ele><time>2026-03-30T06:56:39.995Z</time></trkpt><trkpt lat="45.88326113910098" lon="11.602095722627784"><ele>1049.0</ele><time>2026-03-30T06:56:40.995Z</time></trkpt><trkpt lat="45.883281617771246" lon="11.602182153028403"><ele>1049.0</ele><time>2026-03-30T06:56:43.995Z</time></trkpt><trkpt lat="45.88332219450975" lon="11.602271870304817"><ele>1049.0</ele><time>2026-03-30T06:56:50.995Z</time></trkpt><trkpt lat="45.883281539730056" lon="11.60219908072159"><ele>1049.0</ele><time>2026-03-30T06:59:01.994Z</time></trkpt><trkpt lat="45.88324821630179" lon="11.602110916960001"><ele>1049.0</ele><time>2026-03-30T06:59:06.994Z</time></trkpt><trkpt lat="45.88320425685852" lon="11.602031054161612"><ele>1049.0</ele><time>2026-03-30T06:59:13.994Z</time></trkpt><trkpt lat="45.88312992628377" lon="11.602008785960049"><ele>1049.0</ele><time>2026-03-30T06:59:18.994Z</time></trkpt><trkpt lat="45.88306423674629" lon="11.602013308150807"><ele>1049.0</ele><time>2026-03-30T06:59:23.994Z</time></trkpt><trkpt lat="45.88298849051529" lon="11.602029312350624"><ele>1050.0</ele><time>2026-03-30T06:59:29.994Z</time></trkpt><trkpt lat="45.88291945943385" lon="11.601982376582464"><ele>1051.0</ele><time>2026-03-30T06:59:34.994Z</time></trkpt><trkpt lat="45.882858366726545" lon="11.601945295841968"><ele>1052.0</ele><time>2026-03-30T06:59:38.994Z</time></trkpt><trkpt lat="45.88280751292522" lon="11.601889089429477"><ele>1053.0</ele><time>2026-03-30T06:59:43.993Z</time></trkpt><trkpt lat="45.88274094233553" lon="11.601852509509241"><ele>1054.0</ele><time>2026-03-30T06:59:48.993Z</time></trkpt><trkpt lat="45.88268007765832" lon="11.601828095387804"><ele>1055.0</ele><time>2026-03-30T06:59:54.993Z</time></trkpt><trkpt lat="45.88261401820281" lon="11.60181423178845"><ele>1056.0</ele><time>2026-03-30T06:59:59.993Z</time></trkpt><trkpt lat="45.88254996476379" lon="11.601825839300233"><ele>1056.4285714285713</ele><time>2026-03-30T07:00:04.993Z</time></trkpt><trkpt lat="45.882481357264425" lon="11.601808656911988"><ele>1056.857142857143</ele><time>2026-03-30T07:00:09.993Z</time></trkpt><trkpt lat="45.882417721531624" lon="11.601807870966606"><ele>1057.2857142857142</ele><time>2026-03-30T07:00:13.993Z</time></trkpt><trkpt lat="45.88234782190529" lon="11.601816701966028"><ele>1057.7142857142858</ele><time>2026-03-30T07:00:18.993Z</time></trkpt><trkpt lat="45.882267522247446" lon="11.601819514049371"><ele>1058.142857142857</ele><time>2026-03-30T07:00:24.993Z</time></trkpt><trkpt lat="45.88219261022081" lon="11.60182671068093"><ele>1058.5714285714284</ele><time>2026-03-30T07:00:29.993Z</time></trkpt><trkpt lat="45.88211827203924" lon="11.601829905700306"><ele>1059.0</ele><time>2026-03-30T07:00:34.993Z</time></trkpt><trkpt lat="45.88204657330276" lon="11.601840914255062"><ele>1059.0</ele><time>2026-03-30T07:00:39.993Z</time></trkpt><trkpt lat="45.88198203013088" lon="11.601832229540399"><ele>1059.0</ele><time>2026-03-30T07:00:44.993Z</time></trkpt><trkpt lat="45.88191890186478" lon="11.601815804664064"><ele>1059.0</ele><time>2026-03-30T07:00:49.993Z</time></trkpt><trkpt lat="45.881848715883244" lon="11.601811316014562"><ele>1059.0</ele><time>2026-03-30T07:00:54.993Z</time></trkpt><trkpt lat="45.88178251004116" lon="11.601803382313747"><ele>1059.0</ele><time>2026-03-30T07:00:59.993Z</time></trkpt><trkpt lat="45.88171740932707" lon="11.601789958037324"><ele>1059.0</ele><time>2026-03-30T07:01:04.993Z</time></trkpt><trkpt lat="45.88165315089276" lon="11.6017742667913"><ele>1059.0</ele><time>2026-03-30T07:01:09.993Z</time></trkpt><trkpt lat="45.88157964863392" lon="11.601759847968596"><ele>1059.857142857143</ele><time>2026-03-30T07:01:14.993Z</time></trkpt><trkpt lat="45.881512367464" lon="11.60172064012407"><ele>1060.7142857142856</ele><time>2026-03-30T07:01:19.993Z</time></trkpt><trkpt lat="45.88145178429268" lon="11.601687870562094"><ele>1061.5714285714284</ele><time>2026-03-30T07:01:24.993Z</time></trkpt><trkpt lat="45.88138528315196" lon="11.601642972609437"><ele>1062.4285714285713</ele><time>2026-03-30T07:01:29.993Z</time></trkpt><trkpt lat="45.88131231529357" lon="11.601587492431662"><ele>1063.2857142857142</ele><time>2026-03-30T07:01:34.993Z</time></trkpt><trkpt lat="45.88125643690246" lon="11.601536716808749"><ele>1064.142857142857</ele><time>2026-03-30T07:01:39.993Z</time></trkpt><trkpt lat="45.881202800093185" lon="11.601479745066865"><ele>1065.0</ele><time>2026-03-30T07:01:44.993Z</time></trkpt><trkpt lat="45.8811553617928" lon="11.601414561510238"><ele>1065.0</ele><time>2026-03-30T07:01:48.992Z</time></trkpt><trkpt lat="45.881108047460984" lon="11.601353497563732"><ele>1065.0</ele><time>2026-03-30T07:01:53.992Z</time></trkpt><trkpt lat="45.881065868042164" lon="11.601276327381965"><ele>1065.0</ele><time>2026-03-30T07:01:58.992Z</time></trkpt><trkpt lat="45.88101325997822" lon="11.60120887137633"><ele>1065.0</ele><time>2026-03-30T07:02:03.992Z</time></trkpt><trkpt lat="45.88095911770348" lon="11.601137635364912"><ele>1065.0</ele><time>2026-03-30T07:02:08.992Z</time></trkpt><trkpt lat="45.880914307072956" lon="11.601073394092143"><ele>1065.0</ele><time>2026-03-30T07:02:13.992Z</time></trkpt><trkpt lat="45.88086455451655" lon="11.601007811388454"><ele>1065.0</ele><time>2026-03-30T07:02:18.992Z</time></trkpt><trkpt lat="45.88082783082529" lon="11.600932507674107"><ele>1066.7142857142858</ele><time>2026-03-30T07:02:23.992Z</time></trkpt><trkpt lat="45.880779248754365" lon="11.600866457415338"><ele>1068.4285714285713</ele><time>2026-03-30T07:02:28.992Z</time></trkpt><trkpt lat="45.880715424671244" lon="11.600815280958107"><ele>1070.142857142857</ele><time>2026-03-30T07:02:33.992Z</time></trkpt><trkpt lat="45.88064358761745" lon="11.600802092136515"><ele>1071.857142857143</ele><time>2026-03-30T07:02:39.992Z</time></trkpt><trkpt lat="45.8805800216595" lon="11.600803250917425"><ele>1073.5714285714287</ele><time>2026-03-30T07:02:44.992Z</time></trkpt><trkpt lat="45.88050675116959" lon="11.600808935569157"><ele>1075.2857142857142</ele><time>2026-03-30T07:02:50.992Z</time></trkpt><trkpt lat="45.88043235237792" lon="11.600803812968671"><ele>1077.0</ele><time>2026-03-30T07:02:55.992Z</time></trkpt><trkpt lat="45.88036015768512" lon="11.600805260593647"><ele>1077.0</ele><time>2026-03-30T07:03:01.992Z</time></trkpt><trkpt lat="45.88028827339476" lon="11.600793316202651"><ele>1077.0</ele><time>2026-03-30T07:03:06.992Z</time></trkpt><trkpt lat="45.880225964583715" lon="11.600770945239269"><ele>1077.0</ele><time>2026-03-30T07:03:11.992Z</time></trkpt><trkpt lat="45.880160605240356" lon="11.600739801292194"><ele>1077.0</ele><time>2026-03-30T07:03:16.992Z</time></trkpt><trkpt lat="45.880098107203295" lon="11.600718011335731"><ele>1077.0</ele><time>2026-03-30T07:03:20.992Z</time></trkpt><trkpt lat="45.88003569275388" lon="11.600704460323941"><ele>1077.0</ele><time>2026-03-30T07:03:24.992Z</time></trkpt><trkpt lat="45.87995977826759" lon="11.600701156093104"><ele>1077.0</ele><time>2026-03-30T07:03:29.992Z</time></trkpt><trkpt lat="45.879888250040885" lon="11.600728211941316"><ele>1077.7142857142858</ele><time>2026-03-30T07:03:36.992Z</time></trkpt><trkpt lat="45.8798244313144" lon="11.600762577311801"><ele>1078.4285714285716</ele><time>2026-03-30T07:03:41.992Z</time></trkpt><trkpt lat="45.87975344386554" lon="11.600784557072426"><ele>1079.1428571428573</ele><time>2026-03-30T07:03:47.992Z</time></trkpt><trkpt lat="45.879689131168625" lon="11.600800896883575"><ele>1079.857142857143</ele><time>2026-03-30T07:03:51.992Z</time></trkpt><trkpt lat="45.87962699028721" lon="11.60078550602719"><ele>1080.5714285714287</ele><time>2026-03-30T07:03:56.991Z</time></trkpt><trkpt lat="45.87955515829681" lon="11.600757906582272"><ele>1081.2857142857144</ele><time>2026-03-30T07:04:07.991Z</time></trkpt><trkpt lat="45.87947474917341" lon="11.600760375223068"><ele>1082.0</ele><time>2026-03-30T07:04:11.991Z</time></trkpt><trkpt lat="45.87938508924612" lon="11.600762920676997"><ele>1082.0000000000002</ele><time>2026-03-30T07:04:14.991Z</time></trkpt><trkpt lat="45.87931959358097" lon="11.60075942850535"><ele>1082.0</ele><time>2026-03-30T07:04:19.991Z</time></trkpt><trkpt lat="45.879254294056544" lon="11.60072692671958"><ele>1082.0</ele><time>2026-03-30T07:04:24.991Z</time></trkpt><trkpt lat="45.87918873231849" lon="11.600705035153078"><ele>1082.0</ele><time>2026-03-30T07:04:29.991Z</time></trkpt><trkpt lat="45.87912660975698" lon="11.600671426431337"><ele>1082.0</ele><time>2026-03-30T07:04:34.991Z</time></trkpt><trkpt lat="45.8790634104281" lon="11.600646473079726"><ele>1082.0000000000002</ele><time>2026-03-30T07:04:42.991Z</time></trkpt><trkpt lat="45.879000404229735" lon="11.600631750878993"><ele>1082.0</ele><time>2026-03-30T07:04:51.991Z</time></trkpt><trkpt lat="45.8789369744427" lon="11.600598978867025"><ele>1082.2857142857144</ele><time>2026-03-30T07:04:58.991Z</time></trkpt><trkpt lat="45.87888457959103" lon="11.600545824695354"><ele>1082.5714285714287</ele><time>2026-03-30T07:05:05.991Z</time></trkpt><trkpt lat="45.87881356919355" lon="11.600496792008732"><ele>1082.857142857143</ele><time>2026-03-30T07:05:12.991Z</time></trkpt><trkpt lat="45.8787561521957" lon="11.600438261175793"><ele>1083.1428571428573</ele><time>2026-03-30T07:05:17.991Z</time></trkpt><trkpt lat="45.87869233399297" lon="11.60040455120228"><ele>1083.4285714285716</ele><time>2026-03-30T07:05:22.991Z</time></trkpt><trkpt lat="45.87862634008312" lon="11.600382784661713"><ele>1083.7142857142858</ele><time>2026-03-30T07:05:26.991Z</time></trkpt><trkpt lat="45.87857052067759" lon="11.60033581393582"><ele>1084.0</ele><time>2026-03-30T07:05:33.991Z</time></trkpt><trkpt lat="45.878502111676944" lon="11.600315830692448"><ele>1086.0</ele><time>2026-03-30T07:05:40.991Z</time></trkpt><trkpt lat="45.87843103531241" lon="11.600291148344251"><ele>1088.0</ele><time>2026-03-30T07:05:46.991Z</time></trkpt><trkpt lat="45.87835014303966" lon="11.600278252201095"><ele>1090.0</ele><time>2026-03-30T07:05:55.991Z</time></trkpt><trkpt lat="45.87824246499839" lon="11.600219573167191"><ele>1092.0</ele><time>2026-03-30T07:06:19.99Z</time></trkpt><trkpt lat="45.87818697331736" lon="11.600317633890787"><ele>1094.0</ele><time>2026-03-30T07:06:35.99Z</time></trkpt><trkpt lat="45.87812870379237" lon="11.60036046396053"><ele>1096.0</ele><time>2026-03-30T07:06:44.002Z</time></trkpt><trkpt lat="45.878130521091364" lon="11.600262402848378"><ele>1100.0</ele><time>2026-03-30T07:07:04.001Z</time></trkpt><trkpt lat="45.87813873024623" lon="11.600162386783254"><ele>1104.0</ele><time>2026-03-30T07:07:15.001Z</time></trkpt><trkpt lat="45.878181239113914" lon="11.600033548984475"><ele>1108.0</ele><time>2026-03-30T07:07:37.003Z</time></trkpt><trkpt lat="45.87811636721568" lon="11.600026905980444"><ele>1112.0</ele><time>2026-03-30T07:09:04.002Z</time></trkpt><trkpt lat="45.8780499225075" lon="11.60005411930476"><ele>1116.0</ele><time>2026-03-30T07:10:00.003Z</time></trkpt><trkpt lat="45.87798602041494" lon="11.600119553677489"><ele>1120.0</ele><time>2026-03-30T07:10:13.003Z</time></trkpt><trkpt lat="45.87796439716632" lon="11.600215820431591"><ele>1120.0</ele><time>2026-03-30T07:10:24.002Z</time></trkpt><trkpt lat="45.87791171057324" lon="11.600286458584762"><ele>1120.0</ele><time>2026-03-30T07:10:36.002Z</time></trkpt><trkpt lat="45.877899044469494" lon="11.60037640184779"><ele>1120.0</ele><time>2026-03-30T07:10:44.002Z</time></trkpt><trkpt lat="45.87785945535548" lon="11.600451783142317"><ele>1120.0</ele><time>2026-03-30T07:10:53.002Z</time></trkpt><trkpt lat="45.87782164463856" lon="11.600529721624003"><ele>1120.0</ele><time>2026-03-30T07:11:03.002Z</time></trkpt><trkpt lat="45.8777891785097" lon="11.600616325081546"><ele>1120.0</ele><time>2026-03-30T07:11:11.002Z</time></trkpt><trkpt lat="45.87773634038041" lon="11.600693787187957"><ele>1120.0</ele><time>2026-03-30T07:11:19.002Z</time></trkpt><trkpt lat="45.877668194964066" lon="11.600695869918905"><ele>1120.5714285714287</ele><time>2026-03-30T07:11:29.002Z</time></trkpt><trkpt lat="45.877636284927064" lon="11.600776756138037"><ele>1121.142857142857</ele><time>2026-03-30T07:11:37.002Z</time></trkpt><trkpt lat="45.87757451297419" lon="11.600848821498516"><ele>1121.7142857142858</ele><time>2026-03-30T07:11:46.003Z</time></trkpt><trkpt lat="45.87753952805838" lon="11.600936486551483"><ele>1122.2857142857142</ele><time>2026-03-30T07:11:57.003Z</time></trkpt><trkpt lat="45.877495030345386" lon="11.601013519939148"><ele>1122.857142857143</ele><time>2026-03-30T07:12:11.003Z</time></trkpt><trkpt lat="45.8774519869327" lon="11.601085965960872"><ele>1123.4285714285716</ele><time>2026-03-30T07:12:19.003Z</time></trkpt><trkpt lat="45.877449135003786" lon="11.601180368027602"><ele>1124.0</ele><time>2026-03-30T07:12:29.003Z</time></trkpt><trkpt lat="45.877413071726075" lon="11.601255460238452"><ele>1120.4285714285716</ele><time>2026-03-30T07:12:38.003Z</time></trkpt><trkpt lat="45.877373705003635" lon="11.601338502241298"><ele>1116.857142857143</ele><time>2026-03-30T07:12:47.003Z</time></trkpt><trkpt lat="45.877308822567834" lon="11.60133501233586"><ele>1113.2857142857142</ele><time>2026-03-30T07:12:55.003Z</time></trkpt><trkpt lat="45.87724100940134" lon="11.60133369342501"><ele>1109.7142857142858</ele><time>2026-03-30T07:13:08.003Z</time></trkpt><trkpt lat="45.8771804460999" lon="11.60138185624824"><ele>1106.142857142857</ele><time>2026-03-30T07:13:21.003Z</time></trkpt><trkpt lat="45.877098824347314" lon="11.601408913806655"><ele>1102.5714285714287</ele><time>2026-03-30T07:13:31.002Z</time></trkpt><trkpt lat="45.87702565593478" lon="11.60141427420975"><ele>1099.0</ele><time>2026-03-30T07:13:37.002Z</time></trkpt><trkpt lat="45.87696127522277" lon="11.60136476435233"><ele>1099.0</ele><time>2026-03-30T07:13:52.003Z</time></trkpt><trkpt lat="45.87690061207722" lon="11.601393655544554"><ele>1099.0</ele><time>2026-03-30T07:13:59.003Z</time></trkpt><trkpt lat="45.87684164826116" lon="11.601443767803604"><ele>1099.0</ele><time>2026-03-30T07:14:03.003Z</time></trkpt><trkpt lat="45.87692130559335" lon="11.601388504588913"><ele>1099.0</ele><time>2026-03-30T07:14:33.003Z</time></trkpt><trkpt lat="45.87684032001561" lon="11.601365579065094"><ele>1099.0</ele><time>2026-03-30T07:14:54.002Z</time></trkpt><trkpt lat="45.876944652377965" lon="11.601318676648617"><ele>1099.0</ele><time>2026-03-30T07:15:24.002Z</time></trkpt><trkpt lat="45.876899681335956" lon="11.601506279161068"><ele>1099.0</ele><time>2026-03-30T07:16:14.004Z</time></trkpt><trkpt lat="45.876898419952816" lon="11.601413142425304"><ele>1099.0</ele><time>2026-03-30T07:21:32.003Z</time></trkpt><trkpt lat="45.87698878473144" lon="11.601284320149396"><ele>1099.0</ele><time>2026-03-30T07:25:04.004Z</time></trkpt><trkpt lat="45.87697459136261" lon="11.601411300685667"><ele>1099.0</ele><time>2026-03-30T07:25:31.004Z</time></trkpt><trkpt lat="45.876899594440545" lon="11.601488821397536"><ele>1099.0</ele><time>2026-03-30T07:26:46.004Z</time></trkpt><trkpt lat="45.87700605996071" lon="11.601477051056355"><ele>1099.0</ele><time>2026-03-30T07:31:23.005Z</time></trkpt><trkpt lat="45.87694818313631" lon="11.601440458113544"><ele>1099.0</ele><time>2026-03-30T07:31:32.005Z</time></trkpt><trkpt lat="45.87687825387646" lon="11.601348882682231"><ele>1099.0</ele><time>2026-03-30T07:31:59.005Z</time></trkpt><trkpt lat="45.87686189196895" lon="11.601491651566056"><ele>1099.0</ele><time>2026-03-30T07:32:41.006Z</time></trkpt><trkpt lat="45.87686977391315" lon="11.601398552312586"><ele>1099.0</ele><time>2026-03-30T07:38:09.001Z</time></trkpt><trkpt lat="45.87692197271073" lon="11.601469420578676"><ele>1099.0</ele><time>2026-03-30T07:38:56.002Z</time></trkpt><trkpt lat="45.87697510690984" lon="11.601524503565068"><ele>1099.0</ele><time>2026-03-30T07:39:02.002Z</time></trkpt><trkpt lat="45.87704556086581" lon="11.601537193206795"><ele>1099.0</ele><time>2026-03-30T07:39:13.002Z</time></trkpt><trkpt lat="45.87711128214767" lon="11.601491201873714"><ele>1099.0</ele><time>2026-03-30T07:39:28.002Z</time></trkpt><trkpt lat="45.877121692578235" lon="11.601381800063505"><ele>1099.0</ele><time>2026-03-30T07:39:45.002Z</time></trkpt><trkpt lat="45.87710412296339" lon="11.601294216912398"><ele>1099.0</ele><time>2026-03-30T07:39:52.002Z</time></trkpt><trkpt lat="45.87714239638673" lon="11.601213575855649"><ele>1099.0</ele><time>2026-03-30T07:40:07.002Z</time></trkpt><trkpt lat="45.87720794749771" lon="11.601202956535277"><ele>1099.0</ele><time>2026-03-30T07:40:18.002Z</time></trkpt><trkpt lat="45.87727583916528" lon="11.601168496907981"><ele>1102.5714285714287</ele><time>2026-03-30T07:40:34.001Z</time></trkpt><trkpt lat="45.87732736041801" lon="11.601109464533728"><ele>1106.142857142857</ele><time>2026-03-30T07:40:42.001Z</time></trkpt><trkpt lat="45.87735948572903" lon="11.601024896131094"><ele>1109.7142857142858</ele><time>2026-03-30T07:40:48.001Z</time></trkpt><trkpt lat="45.87737952332857" lon="11.600928951538124"><ele>1113.2857142857142</ele><time>2026-03-30T07:40:57.001Z</time></trkpt><trkpt lat="45.877432598911376" lon="11.600879624565565"><ele>1116.857142857143</ele><time>2026-03-30T07:41:05.002Z</time></trkpt><trkpt lat="45.87742315779718" lon="11.600786104996349"><ele>1120.4285714285716</ele><time>2026-03-30T07:41:15.002Z</time></trkpt><trkpt lat="45.877426371293446" lon="11.60067876808888"><ele>1124.0</ele><time>2026-03-30T07:41:25.002Z</time></trkpt><trkpt lat="45.877396245325954" lon="11.600587562660206"><ele>1124.0000000000002</ele><time>2026-03-30T07:41:35.002Z</time></trkpt><trkpt lat="45.87737446485649" lon="11.600491229514168"><ele>1124.0</ele><time>2026-03-30T07:41:48.001Z</time></trkpt><trkpt lat="45.877330805919875" lon="11.600416842213038"><ele>1124.0</ele><time>2026-03-30T07:41:55.001Z</time></trkpt><trkpt lat="45.877286938869545" lon="11.600348614094875"><ele>1124.0</ele><time>2026-03-30T07:42:04.001Z</time></trkpt><trkpt lat="45.87728957029309" lon="11.600250305250746"><ele>1124.0</ele><time>2026-03-30T07:42:43.001Z</time></trkpt><trkpt lat="45.877249565222215" lon="11.600178675388614"><ele>1124.0000000000002</ele><time>2026-03-30T07:42:53.001Z</time></trkpt><trkpt lat="45.877239815390716" lon="11.600086518181836"><ele>1124.0</ele><time>2026-03-30T07:43:06.001Z</time></trkpt><trkpt lat="45.87730673409201" lon="11.600072651692644"><ele>1123.4285714285716</ele><time>2026-03-30T07:43:14.002Z</time></trkpt><trkpt lat="45.87737247187874" lon="11.599996301790005"><ele>1122.857142857143</ele><time>2026-03-30T07:43:26.002Z</time></trkpt><trkpt lat="45.87743906207608" lon="11.599951939866534"><ele>1122.2857142857142</ele><time>2026-03-30T07:43:32.001Z</time></trkpt><trkpt lat="45.87749499351002" lon="11.599891672340938"><ele>1121.7142857142858</ele><time>2026-03-30T07:43:38.001Z</time></trkpt><trkpt lat="45.877546254206635" lon="11.599829369766162"><ele>1121.142857142857</ele><time>2026-03-30T07:43:44.001Z</time></trkpt><trkpt lat="45.87758812890395" lon="11.599752906091702"><ele>1120.5714285714287</ele><time>2026-03-30T07:43:49.001Z</time></trkpt><trkpt lat="45.87764366263179" lon="11.59967991828367"><ele>1120.0</ele><time>2026-03-30T07:43:56.001Z</time></trkpt><trkpt lat="45.87768598412182" lon="11.599589537583176"><ele>1120.0</ele><time>2026-03-30T07:44:02.001Z</time></trkpt><trkpt lat="45.877726082927595" lon="11.59950838433718"><ele>1120.0</ele><time>2026-03-30T07:44:07.001Z</time></trkpt><trkpt lat="45.87778038199606" lon="11.599444009272936"><ele>1120.0</ele><time>2026-03-30T07:44:11.001Z</time></trkpt><trkpt lat="45.87785242705847" lon="11.59940617032047"><ele>1120.0</ele><time>2026-03-30T07:44:15.001Z</time></trkpt><trkpt lat="45.87792238221956" lon="11.599414212974787"><ele>1120.0</ele><time>2026-03-30T07:44:19.001Z</time></trkpt><trkpt lat="45.877993228950906" lon="11.59944879945545"><ele>1120.0</ele><time>2026-03-30T07:44:24.001Z</time></trkpt><trkpt lat="45.87806034857067" lon="11.59947832146988"><ele>1120.0</ele><time>2026-03-30T07:44:29.001Z</time></trkpt><trkpt lat="45.878124957749925" lon="11.599510195603582"><ele>1120.0</ele><time>2026-03-30T07:44:34.001Z</time></trkpt><trkpt lat="45.878176294212786" lon="11.599563068715923"><ele>1120.0</ele><time>2026-03-30T07:44:38.001Z</time></trkpt><trkpt lat="45.87824608802697" lon="11.599606236107437"><ele>1120.0</ele><time>2026-03-30T07:44:43.001Z</time></trkpt><trkpt lat="45.87831360543318" lon="11.599646894631004"><ele>1120.0</ele><time>2026-03-30T07:44:48.001Z</time></trkpt><trkpt lat="45.87838140965867" lon="11.599696527660559"><ele>1120.0</ele><time>2026-03-30T07:44:53.001Z</time></trkpt><trkpt lat="45.878454335109254" lon="11.599722400901978"><ele>1120.0</ele><time>2026-03-30T07:44:58.001Z</time></trkpt><trkpt lat="45.878518332260484" lon="11.59976490559272"><ele>1120.0</ele><time>2026-03-30T07:45:03.001Z</time></trkpt><trkpt lat="45.87859392392169" lon="11.599789772202596"><ele>1119.0</ele><time>2026-03-30T07:45:08.001Z</time></trkpt><trkpt lat="45.87867204199169" lon="11.599791267510916"><ele>1118.0</ele><time>2026-03-30T07:45:13.002Z</time></trkpt><trkpt lat="45.87874711677872" lon="11.599808216328945"><ele>1117.0</ele><time>2026-03-30T07:45:18.002Z</time></trkpt><trkpt lat="45.878819105243764" lon="11.599830343801539"><ele>1116.0</ele><time>2026-03-30T07:45:23.001Z</time></trkpt><trkpt lat="45.87889074998391" lon="11.599849805294026"><ele>1115.0</ele><time>2026-03-30T07:45:50.002Z</time></trkpt><trkpt lat="45.87893419658124" lon="11.59992752568298"><ele>1114.0</ele><time>2026-03-30T07:45:55.002Z</time></trkpt><trkpt lat="45.87898474365456" lon="11.599986078682077"><ele>1113.0</ele><time>2026-03-30T07:45:59.001Z</time></trkpt><trkpt lat="45.87904754734372" lon="11.600043646376939"><ele>1113.0</ele><time>2026-03-30T07:46:05.001Z</time></trkpt><trkpt lat="45.87910731163819" lon="11.600088268852218"><ele>1113.0</ele><time>2026-03-30T07:46:09.001Z</time></trkpt><trkpt lat="45.87917737222925" lon="11.60010904315724"><ele>1113.0</ele><time>2026-03-30T07:46:14.001Z</time></trkpt><trkpt lat="45.879200038814" lon="11.600195331460492"><ele>1113.0</ele><time>2026-03-30T07:46:20.001Z</time></trkpt><trkpt lat="45.87922356739481" lon="11.600291510577113"><ele>1113.0</ele><time>2026-03-30T07:46:28.001Z</time></trkpt><trkpt lat="45.879293837181564" lon="11.600304083413647"><ele>1113.0</ele><time>2026-03-30T07:46:39.001Z</time></trkpt><trkpt lat="45.879355974570025" lon="11.600329098986148"><ele>1113.0</ele><time>2026-03-30T07:46:50.001Z</time></trkpt><trkpt lat="45.87937164267493" lon="11.600419555903589"><ele>1108.5714285714287</ele><time>2026-03-30T07:47:01.001Z</time></trkpt><trkpt lat="45.87937584148441" lon="11.600519689385662"><ele>1104.142857142857</ele><time>2026-03-30T07:47:13.001Z</time></trkpt><trkpt lat="45.879368787131284" lon="11.60061625367094"><ele>1099.7142857142858</ele><time>2026-03-30T07:47:21.002Z</time></trkpt><trkpt lat="45.8794181031221" lon="11.600698471239426"><ele>1095.2857142857142</ele><time>2026-03-30T07:47:28.002Z</time></trkpt><trkpt lat="45.87937042788652" lon="11.600780484492514"><ele>1090.857142857143</ele><time>2026-03-30T07:47:37.001Z</time></trkpt><trkpt lat="45.879432080480655" lon="11.600810739811823"><ele>1086.4285714285716</ele><time>2026-03-30T07:47:44.001Z</time></trkpt><trkpt lat="45.8794952216358" lon="11.600812974100782"><ele>1082.0</ele><time>2026-03-30T07:47:48.001Z</time></trkpt><trkpt lat="45.879561276489696" lon="11.600823480416734"><ele>1082.0000000000002</ele><time>2026-03-30T07:47:54.001Z</time></trkpt><trkpt lat="45.879628739132805" lon="11.600826714864116"><ele>1082.0</ele><time>2026-03-30T07:47:59.001Z</time></trkpt><trkpt lat="45.87969201977515" lon="11.600832526367892"><ele>1082.0</ele><time>2026-03-30T07:48:03.001Z</time></trkpt><trkpt lat="45.87976443008091" lon="11.60082613867136"><ele>1082.0</ele><time>2026-03-30T07:48:08.001Z</time></trkpt><trkpt lat="45.8798303801354" lon="11.600777064259933"><ele>1082.0</ele><time>2026-03-30T07:48:13.001Z</time></trkpt><trkpt lat="45.87990374301975" lon="11.600763903986717"><ele>1082.0000000000002</ele><time>2026-03-30T07:48:18.001Z</time></trkpt><trkpt lat="45.879980007783175" lon="11.600751641184864"><ele>1082.0</ele><time>2026-03-30T07:48:23.001Z</time></trkpt><trkpt lat="45.88005317152811" lon="11.600742568496734"><ele>1081.2857142857144</ele><time>2026-03-30T07:48:28.001Z</time></trkpt><trkpt lat="45.8801285337482" lon="11.60077014447152"><ele>1080.5714285714287</ele><time>2026-03-30T07:48:33.001Z</time></trkpt><trkpt lat="45.880188145146136" lon="11.600809064081304"><ele>1079.857142857143</ele><time>2026-03-30T07:48:37.001Z</time></trkpt><trkpt lat="45.88025884710907" lon="11.600851838599702"><ele>1079.1428571428573</ele><time>2026-03-30T07:48:42.001Z</time></trkpt><trkpt lat="45.88032372022186" lon="11.6008485039502"><ele>1078.4285714285716</ele><time>2026-03-30T07:48:46.001Z</time></trkpt><trkpt lat="45.88039850949524" lon="11.600864060986856"><ele>1077.7142857142858</ele><time>2026-03-30T07:48:51.001Z</time></trkpt><trkpt lat="45.88047438510832" lon="11.600836993597243"><ele>1077.0</ele><time>2026-03-30T07:48:56.001Z</time></trkpt><trkpt lat="45.880545919115114" lon="11.600824344011082"><ele>1077.0</ele><time>2026-03-30T07:49:01.001Z</time></trkpt><trkpt lat="45.88061253254973" lon="11.600820722779947"><ele>1077.0</ele><time>2026-03-30T07:49:06.001Z</time></trkpt><trkpt lat="45.88068700497842" lon="11.600812401902001"><ele>1077.0</ele><time>2026-03-30T07:49:11Z</time></trkpt><trkpt lat="45.88075581231693" lon="11.6008672621782"><ele>1077.0</ele><time>2026-03-30T07:49:16Z</time></trkpt><trkpt lat="45.880813816984734" lon="11.600908440511247"><ele>1077.0</ele><time>2026-03-30T07:49:21Z</time></trkpt><trkpt lat="45.88085958630587" lon="11.600988209326607"><ele>1077.0</ele><time>2026-03-30T07:49:33.002Z</time></trkpt><trkpt lat="45.88090441888949" lon="11.601073029797265"><ele>1077.0</ele><time>2026-03-30T07:49:38.002Z</time></trkpt><trkpt lat="45.88095515803453" lon="11.601154694934285"><ele>1075.0</ele><time>2026-03-30T07:49:44.002Z</time></trkpt><trkpt lat="45.880999575333966" lon="11.601240772904719"><ele>1073.0</ele><time>2026-03-30T07:49:49.002Z</time></trkpt><trkpt lat="45.88105176228337" lon="11.60132768926924"><ele>1071.0</ele><time>2026-03-30T07:49:54.002Z</time></trkpt><trkpt lat="45.88110964170755" lon="11.60139916046292"><ele>1069.0</ele><time>2026-03-30T07:49:59.002Z</time></trkpt><trkpt lat="45.88116941029546" lon="11.601472893313744"><ele>1067.0</ele><time>2026-03-30T07:50:04.002Z</time></trkpt><trkpt lat="45.88121941630208" lon="11.601536603365204"><ele>1065.0</ele><time>2026-03-30T07:50:08.002Z</time></trkpt><trkpt lat="45.881284014601015" lon="11.601594026846417"><ele>1065.0</ele><time>2026-03-30T07:50:13.002Z</time></trkpt><trkpt lat="45.88133856263103" lon="11.601645291394194"><ele>1065.0</ele><time>2026-03-30T07:50:17.002Z</time></trkpt><trkpt lat="45.88140879786802" lon="11.601674647987403"><ele>1065.0</ele><time>2026-03-30T07:50:22.002Z</time></trkpt><trkpt lat="45.88148096016746" lon="11.601728488689872"><ele>1065.0</ele><time>2026-03-30T07:50:27.002Z</time></trkpt><trkpt lat="45.88155340694745" lon="11.60177434912534"><ele>1065.0</ele><time>2026-03-30T07:50:32.002Z</time></trkpt><trkpt lat="45.881615683781234" lon="11.601792448465263"><ele>1065.0</ele><time>2026-03-30T07:50:36.001Z</time></trkpt><trkpt lat="45.88169336299055" lon="11.601813940013002"><ele>1065.0</ele><time>2026-03-30T07:50:41.001Z</time></trkpt><trkpt lat="45.88175466616547" lon="11.601837657833393"><ele>1064.142857142857</ele><time>2026-03-30T07:50:45.001Z</time></trkpt><trkpt lat="45.88182828324283" lon="11.60185796707109"><ele>1063.2857142857142</ele><time>2026-03-30T07:50:50.001Z</time></trkpt><trkpt lat="45.88189339977719" lon="11.601861692630774"><ele>1062.4285714285713</ele><time>2026-03-30T07:50:54.001Z</time></trkpt><trkpt lat="45.88195582735219" lon="11.601876824751017"><ele>1061.5714285714284</ele><time>2026-03-30T07:50:58.001Z</time></trkpt><trkpt lat="45.882034351173644" lon="11.601885368002117"><ele>1060.7142857142856</ele><time>2026-03-30T07:51:03.001Z</time></trkpt><trkpt lat="45.88210923483349" lon="11.601883916454993"><ele>1059.857142857143</ele><time>2026-03-30T07:51:08.001Z</time></trkpt><trkpt lat="45.882187858823656" lon="11.60189984897864"><ele>1059.0</ele><time>2026-03-30T07:51:13.001Z</time></trkpt><trkpt lat="45.88226153530056" lon="11.601900205176598"><ele>1059.0</ele><time>2026-03-30T07:51:18.001Z</time></trkpt><trkpt lat="45.882337838417946" lon="11.601892707753628"><ele>1059.0</ele><time>2026-03-30T07:51:23.001Z</time></trkpt><trkpt lat="45.88240294321472" lon="11.601889690743123"><ele>1059.0</ele><time>2026-03-30T07:51:27.001Z</time></trkpt><trkpt lat="45.88247245946318" lon="11.60188103868753"><ele>1059.0</ele><time>2026-03-30T07:51:32.002Z</time></trkpt><trkpt lat="45.88253690278015" lon="11.601872097713946"><ele>1059.0</ele><time>2026-03-30T07:51:36.002Z</time></trkpt><trkpt lat="45.88261422067023" lon="11.60186844446515"><ele>1059.0</ele><time>2026-03-30T07:51:41.002Z</time></trkpt><trkpt lat="45.88269153547598" lon="11.601891058122694"><ele>1059.0</ele><time>2026-03-30T07:51:46.002Z</time></trkpt><trkpt lat="45.88275759358944" lon="11.601923777764686"><ele>1058.5714285714284</ele><time>2026-03-30T07:51:50.002Z</time></trkpt><trkpt lat="45.88283013381184" lon="11.601958137139794"><ele>1058.142857142857</ele><time>2026-03-30T07:51:55.002Z</time></trkpt><trkpt lat="45.882886691850125" lon="11.602028393879424"><ele>1057.7142857142858</ele><time>2026-03-30T07:52:00.002Z</time></trkpt><trkpt lat="45.88295212082257" lon="11.602084791909133"><ele>1057.2857142857142</ele><time>2026-03-30T07:52:05.002Z</time></trkpt><trkpt lat="45.88301745875935" lon="11.602092343961484"><ele>1056.857142857143</ele><time>2026-03-30T07:52:09.002Z</time></trkpt><trkpt lat="45.883081050776774" lon="11.602087822905299"><ele>1056.4285714285713</ele><time>2026-03-30T07:52:13.002Z</time></trkpt><trkpt lat="45.88314480393641" lon="11.602067262417775"><ele>1056.0</ele><time>2026-03-30T07:52:18.002Z</time></trkpt><trkpt lat="45.883208928237956" lon="11.602061559405335"><ele>1056.0</ele><time>2026-03-30T07:52:22.002Z</time></trkpt><trkpt lat="45.88324608070967" lon="11.602136118771945"><ele>1056.0</ele><time>2026-03-30T07:52:28.002Z</time></trkpt><trkpt lat="45.883273595809705" lon="11.602226329214117"><ele>1056.0</ele><time>2026-03-30T07:52:31.002Z</time></trkpt><trkpt lat="45.88324030706736" lon="11.602132217873251"><ele>1056.0</ele><time>2026-03-30T07:53:16.001Z</time></trkpt><trkpt lat="45.88321477012016" lon="11.602029887527609"><ele>1056.0</ele><time>2026-03-30T07:53:21.001Z</time></trkpt><trkpt lat="45.88318352899845" lon="11.60194161287726"><ele>1056.0</ele><time>2026-03-30T07:53:26.001Z</time></trkpt><trkpt lat="45.883145732790155" lon="11.601857800859975"><ele>1056.0</ele><time>2026-03-30T07:53:31.001Z</time></trkpt><trkpt lat="45.88311279519436" lon="11.601760235273643"><ele>1056.0</ele><time>2026-03-30T07:53:37.003Z</time></trkpt><trkpt lat="45.88309518132297" lon="11.601657232461031"><ele>1056.0</ele><time>2026-03-30T07:53:42.002Z</time></trkpt><trkpt lat="45.883064598518764" lon="11.601571002766004"><ele>1056.0</ele><time>2026-03-30T07:53:47.002Z</time></trkpt><trkpt lat="45.88302026244972" lon="11.601502230295807"><ele>1056.0</ele><time>2026-03-30T07:53:52.002Z</time></trkpt><trkpt lat="45.88296846945167" lon="11.60143311605069"><ele>1056.0</ele><time>2026-03-30T07:53:57.002Z</time></trkpt><trkpt lat="45.88293004748122" lon="11.601347659208557"><ele>1056.0</ele><time>2026-03-30T07:54:03.002Z</time></trkpt><trkpt lat="45.88289688949038" lon="11.601264804387025"><ele>1056.0</ele><time>2026-03-30T07:54:09.002Z</time></trkpt><trkpt lat="45.88284000233068" lon="11.601199149147156"><ele>1056.2857142857142</ele><time>2026-03-30T07:54:14.002Z</time></trkpt><trkpt lat="45.882793177616556" lon="11.601126154895725"><ele>1056.5714285714287</ele><time>2026-03-30T07:54:20.002Z</time></trkpt><trkpt lat="45.88272945055204" lon="11.601077976168957"><ele>1056.857142857143</ele><time>2026-03-30T07:54:25.002Z</time></trkpt><trkpt lat="45.8826934542108" lon="11.600998810249058"><ele>1057.142857142857</ele><time>2026-03-30T07:54:30.001Z</time></trkpt><trkpt lat="45.88263325201892" lon="11.600922548691873"><ele>1057.4285714285713</ele><time>2026-03-30T07:54:37.001Z</time></trkpt><trkpt lat="45.88256813277286" lon="11.600847773314607"><ele>1057.7142857142858</ele><time>2026-03-30T07:54:44.001Z</time></trkpt><trkpt lat="45.88251883820589" lon="11.600788606472742"><ele>1058.0</ele><time>2026-03-30T07:54:50.001Z</time></trkpt><trkpt lat="45.88247081057149" lon="11.600717534783778"><ele>1059.0</ele><time>2026-03-30T07:54:57.001Z</time></trkpt><trkpt lat="45.88241727108715" lon="11.60064748388098"><ele>1060.0</ele><time>2026-03-30T07:55:04.001Z</time></trkpt><trkpt lat="45.88236481130133" lon="11.600587916856753"><ele>1061.0</ele><time>2026-03-30T07:55:11.001Z</time></trkpt><trkpt lat="45.88236478488299" lon="11.600482337713927"><ele>1062.0</ele><time>2026-03-30T07:55:23.001Z</time></trkpt><trkpt lat="45.882357024479404" lon="11.600379072015816"><ele>1063.0</ele><time>2026-03-30T07:55:30.001Z</time></trkpt><trkpt lat="45.88234513157963" lon="11.600290152139202"><ele>1064.0</ele><time>2026-03-30T07:55:36.001Z</time></trkpt><trkpt lat="45.88233899295842" lon="11.600161242598388"><ele>1065.0</ele><time>2026-03-30T07:55:51.002Z</time></trkpt><trkpt lat="45.88232918216803" lon="11.60006898930628"><ele>1065.7142857142858</ele><time>2026-03-30T07:55:56.002Z</time></trkpt><trkpt lat="45.882317684327056" lon="11.599973157054738"><ele>1066.4285714285713</ele><time>2026-03-30T07:56:02.002Z</time></trkpt><trkpt lat="45.882289984827516" lon="11.59986885958479"><ele>1067.142857142857</ele><time>2026-03-30T07:56:09.002Z</time></trkpt><trkpt lat="45.88226830366334" lon="11.599776408167454"><ele>1067.857142857143</ele><time>2026-03-30T07:56:15.002Z</time></trkpt><trkpt lat="45.88224418420877" lon="11.59968075417367"><ele>1068.5714285714287</ele><time>2026-03-30T07:56:20.002Z</time></trkpt><trkpt lat="45.88220631135064" lon="11.599585305131072"><ele>1069.2857142857142</ele><time>2026-03-30T07:56:27.002Z</time></trkpt><trkpt lat="45.88219332919154" lon="11.599490233332657"><ele>1070.0</ele><time>2026-03-30T07:56:33.002Z</time></trkpt><trkpt lat="45.882184549687175" lon="11.599392955699868"><ele>1070.0</ele><time>2026-03-30T07:56:39.002Z</time></trkpt><trkpt lat="45.882239052902484" lon="11.599344515802796"><ele>1070.0</ele><time>2026-03-30T07:56:46.002Z</time></trkpt><trkpt lat="45.88225071656054" lon="11.599246914947596"><ele>1070.0</ele><time>2026-03-30T07:56:54.002Z</time></trkpt><trkpt lat="45.88222165481832" lon="11.599151515410908"><ele>1070.0</ele><time>2026-03-30T07:57:00.002Z</time></trkpt><trkpt lat="45.882197957295936" lon="11.599064905895649"><ele>1070.0</ele><time>2026-03-30T07:57:05.002Z</time></trkpt><trkpt lat="45.88218084428618" lon="11.598977270548344"><ele>1070.0</ele><time>2026-03-30T07:57:10.002Z</time></trkpt><trkpt lat="45.882226119141194" lon="11.598912675894084"><ele>1070.0</ele><time>2026-03-30T07:57:17.001Z</time></trkpt><trkpt lat="45.88222879177221" lon="11.598818118743106"><ele>1070.0</ele><time>2026-03-30T07:57:21.001Z</time></trkpt><trkpt lat="45.88219655603613" lon="11.598735888955888"><ele>1070.0</ele><time>2026-03-30T07:57:25.001Z</time></trkpt><trkpt lat="45.88217635448386" lon="11.598649662957605"><ele>1070.0</ele><time>2026-03-30T07:57:29.001Z</time></trkpt><trkpt lat="45.88215759644482" lon="11.598561629085973"><ele>1070.0</ele><time>2026-03-30T07:57:33.001Z</time></trkpt><trkpt lat="45.88213198489508" lon="11.598478872142504"><ele>1070.0</ele><time>2026-03-30T07:57:37.001Z</time></trkpt><trkpt lat="45.88214550054892" lon="11.598377231033725"><ele>1070.0</ele><time>2026-03-30T07:57:43.001Z</time></trkpt><trkpt lat="45.88218360503872" lon="11.598297956909807"><ele>1070.0</ele><time>2026-03-30T07:57:49.003Z</time></trkpt><trkpt lat="45.882234135893526" lon="11.59823068582079"><ele>1070.0</ele><time>2026-03-30T07:57:54.002Z</time></trkpt><trkpt lat="45.882273228390204" lon="11.598150684884882"><ele>1070.0</ele><time>2026-03-30T07:58:00.003Z</time></trkpt><trkpt lat="45.88230990997265" lon="11.59807191978194"><ele>1070.0</ele><time>2026-03-30T07:58:05.002Z</time></trkpt><trkpt lat="45.88231190172146" lon="11.59796882571551"><ele>1070.0</ele><time>2026-03-30T07:58:11.002Z</time></trkpt><trkpt lat="45.88229903964121" lon="11.597864346391857"><ele>1070.0</ele><time>2026-03-30T07:58:17.002Z</time></trkpt><trkpt lat="45.88227506960658" lon="11.597769750016692"><ele>1070.0</ele><time>2026-03-30T07:58:23.002Z</time></trkpt><trkpt lat="45.88227374767061" lon="11.597678977307869"><ele>1070.0</ele><time>2026-03-30T07:58:29.002Z</time></trkpt><trkpt lat="45.88222504431013" lon="11.597600981648005"><ele>1069.5714285714284</ele><time>2026-03-30T07:58:37.002Z</time></trkpt><trkpt lat="45.88215468034925" lon="11.597565231531197"><ele>1069.142857142857</ele><time>2026-03-30T07:58:47.002Z</time></trkpt><trkpt lat="45.88208668194873" lon="11.597547574186065"><ele>1068.7142857142858</ele><time>2026-03-30T07:58:53.002Z</time></trkpt><trkpt lat="45.882019814384186" lon="11.59752075708721"><ele>1068.2857142857142</ele><time>2026-03-30T07:58:59.002Z</time></trkpt><trkpt lat="45.88195857878724" lon="11.59747759052002"><ele>1067.857142857143</ele><time>2026-03-30T07:59:06.002Z</time></trkpt><trkpt lat="45.881897991917995" lon="11.597435619409712"><ele>1067.4285714285713</ele><time>2026-03-30T07:59:12.002Z</time></trkpt><trkpt lat="45.881830796330206" lon="11.597418353750685"><ele>1067.0</ele><time>2026-03-30T07:59:18.001Z</time></trkpt><trkpt lat="45.88176757783213" lon="11.597429427046192"><ele>1068.9999999999998</ele><time>2026-03-30T07:59:26.001Z</time></trkpt><trkpt lat="45.88170442838429" lon="11.597411885118955"><ele>1071.0</ele><time>2026-03-30T07:59:33.001Z</time></trkpt><trkpt lat="45.88164804005673" lon="11.597369503429583"><ele>1073.0</ele><time>2026-03-30T07:59:38.001Z</time></trkpt><trkpt lat="45.88157636294754" lon="11.597326615589994"><ele>1075.0</ele><time>2026-03-30T07:59:43.001Z</time></trkpt><trkpt lat="45.88150931921969" lon="11.597281196775395"><ele>1077.0</ele><time>2026-03-30T07:59:50.001Z</time></trkpt><trkpt lat="45.88145967134115" lon="11.597218252478793"><ele>1078.9999999999998</ele><time>2026-03-30T07:59:57.003Z</time></trkpt><trkpt lat="45.88139299703326" lon="11.597179387266891"><ele>1081.0</ele><time>2026-03-30T08:00:07.003Z</time></trkpt><trkpt lat="45.88132833292262" lon="11.597148012395813"><ele>1080.9999999999998</ele><time>2026-03-30T08:00:15.003Z</time></trkpt><trkpt lat="45.88126088172097" lon="11.597107057202848"><ele>1081.0</ele><time>2026-03-30T08:00:23.002Z</time></trkpt><trkpt lat="45.88120068011348" lon="11.597065428677107"><ele>1081.0</ele><time>2026-03-30T08:00:29.002Z</time></trkpt><trkpt lat="45.88113119669541" lon="11.597105639864997"><ele>1081.0</ele><time>2026-03-30T08:00:36.002Z</time></trkpt><trkpt lat="45.88107540563567" lon="11.597151038478437"><ele>1081.0</ele><time>2026-03-30T08:00:43.002Z</time></trkpt><trkpt lat="45.881021496512425" lon="11.597098255391604"><ele>1080.9999999999998</ele><time>2026-03-30T08:00:53.002Z</time></trkpt><trkpt lat="45.881010332348474" lon="11.596995072678093"><ele>1081.0</ele><time>2026-03-30T08:00:57.002Z</time></trkpt><trkpt lat="45.8809450257346" lon="11.596941559195118"><ele>1084.8</ele><time>2026-03-30T08:01:03.002Z</time></trkpt><trkpt lat="45.880900339854755" lon="11.596875074247928"><ele>1088.6</ele><time>2026-03-30T08:01:09.002Z</time></trkpt><trkpt lat="45.8808681567881" lon="11.597022821106505"><ele>1092.4</ele><time>2026-03-30T08:01:56.002Z</time></trkpt><trkpt lat="45.88070191912092" lon="11.597175792479826"><ele>1096.2</ele><time>2026-03-30T08:03:37Z</time></trkpt><trkpt lat="45.880765318723626" lon="11.59715137209403"><ele>1100.0</ele><time>2026-03-30T08:04:13.001Z</time></trkpt><trkpt lat="45.880799018706526" lon="11.597063612268922"><ele>1100.0</ele><time>2026-03-30T08:04:17Z</time></trkpt><trkpt lat="45.88087479212016" lon="11.597005223801874"><ele>1100.0</ele><time>2026-03-30T08:04:41Z</time></trkpt><trkpt lat="45.8808337713491" lon="11.596933432007262"><ele>1100.0</ele><time>2026-03-30T08:07:56.999Z</time></trkpt><trkpt lat="45.88078133410963" lon="11.59688243297817"><ele>1100.0</ele><time>2026-03-30T08:08:02.999Z</time></trkpt><trkpt lat="45.88072467962425" lon="11.596839772459747"><ele>1100.0</ele><time>2026-03-30T08:08:14.999Z</time></trkpt><trkpt lat="45.88072674541735" lon="11.59674489485077"><ele>1100.0</ele><time>2026-03-30T08:08:19.999Z</time></trkpt><trkpt lat="45.880675634605076" lon="11.596808325832168"><ele>1100.0</ele><time>2026-03-30T08:08:44Z</time></trkpt><trkpt lat="45.880633493582465" lon="11.596738209318035"><ele>1100.0</ele><time>2026-03-30T08:08:55.001Z</time></trkpt><trkpt lat="45.88059898937936" lon="11.596815245463533"><ele>1100.0</ele><time>2026-03-30T08:09:17.001Z</time></trkpt><trkpt lat="45.88057308667471" lon="11.596902246119539"><ele>1100.0</ele><time>2026-03-30T08:09:30.001Z</time></trkpt><trkpt lat="45.88061724512165" lon="11.596828834139213"><ele>1100.0</ele><time>2026-03-30T08:09:37.001Z</time></trkpt><trkpt lat="45.880709871323845" lon="11.596824183689037"><ele>1100.0</ele><time>2026-03-30T08:12:28.999Z</time></trkpt><trkpt lat="45.88064930153002" lon="11.596876314461449"><ele>1100.0</ele><time>2026-03-30T08:12:33.999Z</time></trkpt><trkpt lat="45.880606395774755" lon="11.596943374509081"><ele>1100.0</ele><time>2026-03-30T08:12:38.999Z</time></trkpt><trkpt lat="45.88055759727592" lon="11.59703522268708"><ele>1100.0</ele><time>2026-03-30T08:12:58.001Z</time></trkpt><trkpt lat="45.88051553430966" lon="11.596952666912088"><ele>1100.0</ele><time>2026-03-30T08:15:25.001Z</time></trkpt><trkpt lat="45.88048849588049" lon="11.596868842113608"><ele>1100.0</ele><time>2026-03-30T08:15:31.001Z</time></trkpt><trkpt lat="45.88049377249966" lon="11.59696037653297"><ele>1100.0</ele><time>2026-03-30T08:16:01Z</time></trkpt><trkpt lat="45.88052832024906" lon="11.597038455223798"><ele>1100.0</ele><time>2026-03-30T08:16:16Z</time></trkpt><trkpt lat="45.880470157256006" lon="11.59699822136622"><ele>1100.0</ele><time>2026-03-30T08:18:36Z</time></trkpt><trkpt lat="45.88043177438938" lon="11.596924178822864"><ele>1100.0</ele><time>2026-03-30T08:22:12.992Z</time></trkpt><trkpt lat="45.880365963196034" lon="11.59691213823437"><ele>1100.0</ele><time>2026-03-30T08:22:29.992Z</time></trkpt><trkpt lat="45.88038191280679" lon="11.597041467324397"><ele>1100.0</ele><time>2026-03-30T08:24:31.992Z</time></trkpt><trkpt lat="45.88045166370654" lon="11.597133819776307"><ele>1100.0</ele><time>2026-03-30T08:26:16.992Z</time></trkpt><trkpt lat="45.88039381094665" lon="11.597175927215327"><ele>1100.0</ele><time>2026-03-30T08:28:06.992Z</time></trkpt><trkpt lat="45.88045849698643" lon="11.597215261076558"><ele>1100.0</ele><time>2026-03-30T08:28:14.992Z</time></trkpt><trkpt lat="45.88040275541256" lon="11.597113196798137"><ele>1100.0</ele><time>2026-03-30T08:31:04.991Z</time></trkpt><trkpt lat="45.88034218948269" lon="11.597055620474798"><ele>1100.0</ele><time>2026-03-30T08:33:09.991Z</time></trkpt><trkpt lat="45.880314304424495" lon="11.596968562641976"><ele>1100.0</ele><time>2026-03-30T08:33:18.991Z</time></trkpt><trkpt lat="45.88026939828532" lon="11.596902653357947"><ele>1100.0</ele><time>2026-03-30T08:33:53.991Z</time></trkpt><trkpt lat="45.88023581704754" lon="11.596991070585956"><ele>1100.0</ele><time>2026-03-30T08:34:06.991Z</time></trkpt><trkpt lat="45.88017974142879" lon="11.597039974222248"><ele>1100.0</ele><time>2026-03-30T08:34:13.991Z</time></trkpt><trkpt lat="45.88017997789542" lon="11.596938193836655"><ele>1100.0</ele><time>2026-03-30T08:34:27.991Z</time></trkpt><trkpt lat="45.88026358244035" lon="11.596807580668747"><ele>1100.2857142857142</ele><time>2026-03-30T08:36:52.986Z</time></trkpt><trkpt lat="45.88029142306796" lon="11.596905497866116"><ele>1100.5714285714284</ele><time>2026-03-30T08:37:13.986Z</time></trkpt><trkpt lat="45.880212644128456" lon="11.596908847176572"><ele>1100.8571428571427</ele><time>2026-03-30T08:37:43.986Z</time></trkpt><trkpt lat="45.880157255944496" lon="11.596954861098407"><ele>1101.142857142857</ele><time>2026-03-30T08:37:47.985Z</time></trkpt><trkpt lat="45.880155794633275" lon="11.596861953211638"><ele>1101.4285714285713</ele><time>2026-03-30T08:45:19.985Z</time></trkpt><trkpt lat="45.88013977194305" lon="11.596771370410545"><ele>1101.7142857142856</ele><time>2026-03-30T08:45:28.985Z</time></trkpt><trkpt lat="45.88016377377446" lon="11.596668114573726"><ele>1102.0</ele><time>2026-03-30T08:45:36.985Z</time></trkpt><trkpt lat="45.88013066395795" lon="11.596583098665509"><ele>1102.0</ele><time>2026-03-30T08:45:47.985Z</time></trkpt><trkpt lat="45.88019032576526" lon="11.596527763379862"><ele>1102.0</ele><time>2026-03-30T08:48:31.984Z</time></trkpt><trkpt lat="45.880256873960974" lon="11.5965416565117"><ele>1102.0</ele><time>2026-03-30T08:49:03.985Z</time></trkpt><trkpt lat="45.88027435058326" lon="11.596630388965728"><ele>1102.0</ele><time>2026-03-30T08:49:21.985Z</time></trkpt><trkpt lat="45.88021024901885" lon="11.596620064557309"><ele>1102.0</ele><time>2026-03-30T08:51:07.985Z</time></trkpt><trkpt lat="45.88011467839126" lon="11.596738689116082"><ele>1102.0</ele><time>2026-03-30T08:52:05.984Z</time></trkpt><trkpt lat="45.880082527033736" lon="11.596657792359727"><ele>1101.9999999999998</ele><time>2026-03-30T08:52:12.984Z</time></trkpt><trkpt lat="45.88005513574343" lon="11.596560465120739"><ele>1102.0</ele><time>2026-03-30T08:52:20.984Z</time></trkpt><trkpt lat="45.88012685123117" lon="11.596577143498886"><ele>1102.0</ele><time>2026-03-30T08:53:21.124Z</time></trkpt><trkpt lat="45.880165559850326" lon="11.596668622898852"><ele>1102.0</ele><time>2026-03-30T08:53:34.984Z</time></trkpt><trkpt lat="45.88019374580402" lon="11.596762914278816"><ele>1102.0</ele><time>2026-03-30T08:53:39.984Z</time></trkpt><trkpt lat="45.880166624116306" lon="11.596675153386252"><ele>1101.9999999999998</ele><time>2026-03-30T08:54:07.983Z</time></trkpt><trkpt lat="45.88009483457389" lon="11.596709239739756"><ele>1102.0</ele><time>2026-03-30T08:57:55.975Z</time></trkpt><trkpt lat="45.880033624882984" lon="11.596644847491742"><ele>1104.4285714285713</ele><time>2026-03-30T08:58:19.974Z</time></trkpt><trkpt lat="45.88002445716187" lon="11.59655387569681"><ele>1106.857142857143</ele><time>2026-03-30T08:58:25.974Z</time></trkpt><trkpt lat="45.87996889693635" lon="11.596606078152739"><ele>1109.2857142857142</ele><time>2026-03-30T08:58:41.974Z</time></trkpt><trkpt lat="45.87992491310812" lon="11.596533023273286"><ele>1111.7142857142858</ele><time>2026-03-30T08:59:10.975Z</time></trkpt><trkpt lat="45.87986139028847" lon="11.596527878920005"><ele>1114.142857142857</ele><time>2026-03-30T08:59:17.975Z</time></trkpt><trkpt lat="45.879799335111635" lon="11.596477165959087"><ele>1116.5714285714284</ele><time>2026-03-30T08:59:22.975Z</time></trkpt><trkpt lat="45.87973918391585" lon="11.596506168225728"><ele>1119.0</ele><time>2026-03-30T08:59:27.975Z</time></trkpt><trkpt lat="45.879682674467894" lon="11.596456551458461"><ele>1119.0</ele><time>2026-03-30T08:59:38.975Z</time></trkpt><trkpt lat="45.879609204748874" lon="11.59645035041883"><ele>1119.0</ele><time>2026-03-30T08:59:51.975Z</time></trkpt><trkpt lat="45.87955148257484" lon="11.59648968447929"><ele>1119.0</ele><time>2026-03-30T08:59:59.975Z</time></trkpt><trkpt lat="45.879477468660866" lon="11.59651476682264"><ele>1119.0</ele><time>2026-03-30T09:00:07.975Z</time></trkpt><trkpt lat="45.8794224231432" lon="11.596566602062492"><ele>1119.0</ele><time>2026-03-30T09:00:12.974Z</time></trkpt><trkpt lat="45.8793586867967" lon="11.59656679201814"><ele>1119.0</ele><time>2026-03-30T09:00:33.974Z</time></trkpt><trkpt lat="45.8792941232313" lon="11.596579562865506"><ele>1119.0</ele><time>2026-03-30T09:00:44.974Z</time></trkpt><trkpt lat="45.87931449025311" lon="11.596672634683594"><ele>1119.0</ele><time>2026-03-30T09:01:00.974Z</time></trkpt><trkpt lat="45.87943845908358" lon="11.596708622321563"><ele>1119.0</ele><time>2026-03-30T09:01:19.974Z</time></trkpt><trkpt lat="45.87950684586103" lon="11.596720284365192"><ele>1119.0</ele><time>2026-03-30T09:01:35.974Z</time></trkpt><trkpt lat="45.879639894131515" lon="11.596673829808616"><ele>1119.0</ele><time>2026-03-30T09:01:51.974Z</time></trkpt><trkpt lat="45.87976886313012" lon="11.596633806574536"><ele>1119.0</ele><time>2026-03-30T09:02:47.973Z</time></trkpt><trkpt lat="45.87980688792172" lon="11.596707354420738"><ele>1119.0</ele><time>2026-03-30T09:02:56.973Z</time></trkpt><trkpt lat="45.87990988590172" lon="11.59675849044558"><ele>1119.0</ele><time>2026-03-30T09:04:01.974Z</time></trkpt><trkpt lat="45.87997395932146" lon="11.596787540491169"><ele>1119.0</ele><time>2026-03-30T09:04:24.973Z</time></trkpt><trkpt lat="45.88003014965031" lon="11.59684457357438"><ele>1119.0</ele><time>2026-03-30T09:04:34.973Z</time></trkpt><trkpt lat="45.88012828674988" lon="11.596914550605756"><ele>1119.0</ele><time>2026-03-30T09:04:58.973Z</time></trkpt><trkpt lat="45.88021591952103" lon="11.596931711986771"><ele>1116.5714285714284</ele><time>2026-03-30T09:06:57.972Z</time></trkpt><trkpt lat="45.880265996740896" lon="11.596864624434588"><ele>1114.142857142857</ele><time>2026-03-30T09:07:02.972Z</time></trkpt><trkpt lat="45.880322821346155" lon="11.596820664681022"><ele>1111.7142857142858</ele><time>2026-03-30T09:07:09.972Z</time></trkpt><trkpt lat="45.88023952642919" lon="11.59681682162826"><ele>1109.2857142857142</ele><time>2026-03-30T09:08:59.972Z</time></trkpt><trkpt lat="45.880323808184315" lon="11.59682942691861"><ele>1106.857142857143</ele><time>2026-03-30T09:10:59.975Z</time></trkpt><trkpt lat="45.88035771951041" lon="11.596913152519676"><ele>1104.4285714285713</ele><time>2026-03-30T09:11:08.976Z</time></trkpt><trkpt lat="45.880306628410146" lon="11.597002663573326"><ele>1102.0</ele><time>2026-03-30T09:11:47.977Z</time></trkpt><trkpt lat="45.880363780666045" lon="11.59704759382808"><ele>1101.7142857142856</ele><time>2026-03-30T09:11:55.977Z</time></trkpt><trkpt lat="45.88042766821652" lon="11.597074185268136"><ele>1101.4285714285713</ele><time>2026-03-30T09:12:03.977Z</time></trkpt><trkpt lat="45.88051120110206" lon="11.597070270775125"><ele>1101.142857142857</ele><time>2026-03-30T09:12:40.977Z</time></trkpt><trkpt lat="45.88057423296958" lon="11.597024436091054"><ele>1100.8571428571427</ele><time>2026-03-30T09:13:23.976Z</time></trkpt><trkpt lat="45.88061453263889" lon="11.597122434444858"><ele>1100.5714285714284</ele><time>2026-03-30T09:20:47.975Z</time></trkpt><trkpt lat="45.88067940200555" lon="11.597147477489926"><ele>1100.2857142857142</ele><time>2026-03-30T09:21:05.974Z</time></trkpt><trkpt lat="45.880745437614486" lon="11.597170317714259"><ele>1100.0</ele><time>2026-03-30T09:22:57.975Z</time></trkpt><trkpt lat="45.88079343301813" lon="11.597240778122421"><ele>1100.0</ele><time>2026-03-30T09:23:37.974Z</time></trkpt><trkpt lat="45.880854337906186" lon="11.597317148427692"><ele>1100.0</ele><time>2026-03-30T09:24:39.974Z</time></trkpt><trkpt lat="45.88092175676385" lon="11.597324140743867"><ele>1100.0</ele><time>2026-03-30T09:24:51.974Z</time></trkpt><trkpt lat="45.88099361849415" lon="11.597292433806675"><ele>1100.0</ele><time>2026-03-30T09:25:07.974Z</time></trkpt><trkpt lat="45.88098337610343" lon="11.597388499084477"><ele>1100.0</ele><time>2026-03-30T09:26:40.974Z</time></trkpt><trkpt lat="45.8809258971786" lon="11.597434120138802"><ele>1100.0</ele><time>2026-03-30T09:27:49.973Z</time></trkpt><trkpt lat="45.88086282619692" lon="11.597417542959949"><ele>1100.0</ele><time>2026-03-30T09:28:38.975Z</time></trkpt><trkpt lat="45.88081480951493" lon="11.597351183291858"><ele>1100.0</ele><time>2026-03-30T09:28:52.974Z</time></trkpt><trkpt lat="45.88084728359278" lon="11.597439508975395"><ele>1100.0</ele><time>2026-03-30T09:29:20.974Z</time></trkpt><trkpt lat="45.880899208967335" lon="11.597523964121583"><ele>1100.0</ele><time>2026-03-30T09:29:26.974Z</time></trkpt><trkpt lat="45.880968106938326" lon="11.597575287211004"><ele>1100.0</ele><time>2026-03-30T09:29:38.974Z</time></trkpt><trkpt lat="45.881043401564895" lon="11.59763137754395"><ele>1100.0</ele><time>2026-03-30T09:30:39.977Z</time></trkpt><trkpt lat="45.881139101963804" lon="11.597672076884361"><ele>1100.0</ele><time>2026-03-30T09:31:37.976Z</time></trkpt><trkpt lat="45.88110085186281" lon="11.59775209070857"><ele>1097.2857142857142</ele><time>2026-03-30T09:31:55.976Z</time></trkpt><trkpt lat="45.881180250204864" lon="11.597813612132244"><ele>1094.5714285714284</ele><time>2026-03-30T09:33:38.976Z</time></trkpt><trkpt lat="45.881246408123424" lon="11.597770899569458"><ele>1091.8571428571427</ele><time>2026-03-30T09:34:15.975Z</time></trkpt><trkpt lat="45.88124328021803" lon="11.597672292928106"><ele>1089.142857142857</ele><time>2026-03-30T09:34:29.975Z</time></trkpt><trkpt lat="45.88125041021766" lon="11.597576397272851"><ele>1086.4285714285713</ele><time>2026-03-30T09:34:39.977Z</time></trkpt><trkpt lat="45.88119505118487" lon="11.597530687339338"><ele>1083.7142857142856</ele><time>2026-03-30T09:35:24.976Z</time></trkpt><trkpt lat="45.88113596662436" lon="11.597594706755194"><ele>1081.0</ele><time>2026-03-30T09:36:05.975Z</time></trkpt><trkpt lat="45.881127406600775" lon="11.597503280651782"><ele>1080.9999999999998</ele><time>2026-03-30T09:37:04.976Z</time></trkpt><trkpt lat="45.88116387885735" lon="11.597578432689627"><ele>1081.0</ele><time>2026-03-30T09:37:44.976Z</time></trkpt><trkpt lat="45.88126004312689" lon="11.597601307000822"><ele>1081.0</ele><time>2026-03-30T09:38:35.975Z</time></trkpt><trkpt lat="45.881267090791766" lon="11.597504002671936"><ele>1081.0</ele><time>2026-03-30T09:39:19.976Z</time></trkpt><trkpt lat="45.881334785386244" lon="11.597566429697624"><ele>1081.0</ele><time>2026-03-30T09:39:48.976Z</time></trkpt><trkpt lat="45.881370695975015" lon="11.597483983394111"><ele>1080.9999999999998</ele><time>2026-03-30T09:42:04.975Z</time></trkpt><trkpt lat="45.88134865187686" lon="11.597570955541038"><ele>1081.0</ele><time>2026-03-30T09:46:57.974Z</time></trkpt><trkpt lat="45.88136950914896" lon="11.597661462285249"><ele>1080.9999999999998</ele><time>2026-03-30T09:48:22.974Z</time></trkpt><trkpt lat="45.8813247450166" lon="11.59759721282937"><ele>1081.0</ele><time>2026-03-30T09:50:09.974Z</time></trkpt><trkpt lat="45.881391351221424" lon="11.597546948431855"><ele>1081.0</ele><time>2026-03-30T09:50:59.974Z</time></trkpt><trkpt lat="45.881358400104155" lon="11.597456649877707"><ele>1081.0</ele><time>2026-03-30T09:51:10.974Z</time></trkpt><trkpt lat="45.881361507536646" lon="11.597361063142282"><ele>1081.0</ele><time>2026-03-30T09:51:23.975Z</time></trkpt><trkpt lat="45.88134270170974" lon="11.597448355576503"><ele>1080.9999999999998</ele><time>2026-03-30T09:51:49.974Z</time></trkpt><trkpt lat="45.88134956686916" lon="11.59733964787344"><ele>1081.0</ele><time>2026-03-30T09:55:29.973Z</time></trkpt><trkpt lat="45.88134061724559" lon="11.597248751493076"><ele>1080.9999999999998</ele><time>2026-03-30T09:55:33.973Z</time></trkpt><trkpt lat="45.881432637797595" lon="11.597188355446095"><ele>1081.0</ele><time>2026-03-30T09:56:00.975Z</time></trkpt><trkpt lat="45.88147898009456" lon="11.59726605199155"><ele>1081.0</ele><time>2026-03-30T09:56:07.974Z</time></trkpt><trkpt lat="45.88154257367383" lon="11.597300744194499"><ele>1081.0</ele><time>2026-03-30T09:56:27.974Z</time></trkpt><trkpt lat="45.88155909351409" lon="11.597203987868633"><ele>1081.0</ele><time>2026-03-30T09:57:11.973Z</time></trkpt><trkpt lat="45.88152500324368" lon="11.597122038744724"><ele>1080.9999999999998</ele><time>2026-03-30T09:58:23.974Z</time></trkpt><trkpt lat="45.88157309809428" lon="11.597186529860416"><ele>1081.0</ele><time>2026-03-30T09:58:35.974Z</time></trkpt><trkpt lat="45.88166680562872" lon="11.59722343938732"><ele>1080.9999999999998</ele><time>2026-03-30T09:59:07.974Z</time></trkpt><trkpt lat="45.88173786155232" lon="11.597180313272363"><ele>1081.0</ele><time>2026-03-30T09:59:13.973Z</time></trkpt><trkpt lat="45.88180682608575" lon="11.597151845559594"><ele>1081.0</ele><time>2026-03-30T09:59:20.973Z</time></trkpt><trkpt lat="45.88182503712503" lon="11.597043539043835"><ele>1081.0</ele><time>2026-03-30T09:59:31.973Z</time></trkpt><trkpt lat="45.88181472892492" lon="11.596946109240644"><ele>1081.0</ele><time>2026-03-30T09:59:37.973Z</time></trkpt><trkpt lat="45.881783315576634" lon="11.596860467309387"><ele>1080.9999999999998</ele><time>2026-03-30T09:59:47.973Z</time></trkpt><trkpt lat="45.881746847920056" lon="11.59678200264528"><ele>1081.0</ele><time>2026-03-30T10:00:33.973Z</time></trkpt><trkpt lat="45.88168344005429" lon="11.596754137016793"><ele>1081.0</ele><time>2026-03-30T10:00:39.973Z</time></trkpt><trkpt lat="45.881621970562136" lon="11.596779057546614"><ele>1081.0</ele><time>2026-03-30T10:01:00.973Z</time></trkpt><trkpt lat="45.881593727540825" lon="11.59686109518369"><ele>1081.0</ele><time>2026-03-30T10:01:14.973Z</time></trkpt><trkpt lat="45.88155828450392" lon="11.596940882877238"><ele>1081.0</ele><time>2026-03-30T10:01:29.972Z</time></trkpt><trkpt lat="45.881545456408496" lon="11.597030551059488"><ele>1081.0</ele><time>2026-03-30T10:02:51.973Z</time></trkpt><trkpt lat="45.88157129850085" lon="11.59712479941145"><ele>1081.0</ele><time>2026-03-30T10:03:00.973Z</time></trkpt><trkpt lat="45.88170250219225" lon="11.597148433472764"><ele>1081.0</ele><time>2026-03-30T10:03:22.972Z</time></trkpt><trkpt lat="45.88166672532941" lon="11.59706690610296"><ele>1081.0</ele><time>2026-03-30T10:03:31.972Z</time></trkpt><trkpt lat="45.881771758438354" lon="11.59706805473142"><ele>1081.0</ele><time>2026-03-30T10:03:58.972Z</time></trkpt><trkpt lat="45.88190447465901" lon="11.597048244324302"><ele>1081.0</ele><time>2026-03-30T10:04:33.971Z</time></trkpt><trkpt lat="45.88195877643811" lon="11.596997137144438"><ele>1081.0</ele><time>2026-03-30T10:04:39.973Z</time></trkpt><trkpt lat="45.88201963189878" lon="11.59693753098586"><ele>1081.0</ele><time>2026-03-30T10:04:47.973Z</time></trkpt><trkpt lat="45.88206603505635" lon="11.596862926012344"><ele>1079.5714285714284</ele><time>2026-03-30T10:04:53.973Z</time></trkpt><trkpt lat="45.882116114607406" lon="11.596792806425654"><ele>1078.142857142857</ele><time>2026-03-30T10:04:59.973Z</time></trkpt><trkpt lat="45.88216779390518" lon="11.5967237467043"><ele>1076.7142857142858</ele><time>2026-03-30T10:05:04.973Z</time></trkpt><trkpt lat="45.88220254343291" lon="11.596644692434271"><ele>1075.2857142857142</ele><time>2026-03-30T10:05:10.973Z</time></trkpt><trkpt lat="45.88226225967565" lon="11.596547609533324"><ele>1073.857142857143</ele><time>2026-03-30T10:05:25.973Z</time></trkpt><trkpt lat="45.88230514382174" lon="11.596465220601903"><ele>1072.4285714285713</ele><time>2026-03-30T10:05:42.973Z</time></trkpt><trkpt lat="45.88236150692368" lon="11.5964163695267"><ele>1071.0</ele><time>2026-03-30T10:05:52.972Z</time></trkpt><trkpt lat="45.88240453285333" lon="11.596345774389958"><ele>1071.0</ele><time>2026-03-30T10:05:58.972Z</time></trkpt><trkpt lat="45.88246779091605" lon="11.596300184065274"><ele>1071.0</ele><time>2026-03-30T10:06:04.972Z</time></trkpt><trkpt lat="45.88251538056635" lon="11.596220179359191"><ele>1071.0</ele><time>2026-03-30T10:06:15.972Z</time></trkpt><trkpt lat="45.88256343358344" lon="11.596155675948967"><ele>1071.0</ele><time>2026-03-30T10:06:21.972Z</time></trkpt><trkpt lat="45.88262144156961" lon="11.59608268562238"><ele>1071.0</ele><time>2026-03-30T10:06:28.972Z</time></trkpt><trkpt lat="45.8826766462103" lon="11.596022716616439"><ele>1071.0</ele><time>2026-03-30T10:06:35.972Z</time></trkpt><trkpt lat="45.88271926546773" lon="11.595956084330485"><ele>1071.0</ele><time>2026-03-30T10:06:41.972Z</time></trkpt><trkpt lat="45.88276125518587" lon="11.595866091059682"><ele>1071.857142857143</ele><time>2026-03-30T10:06:47.973Z</time></trkpt><trkpt lat="45.88275864537633" lon="11.595765947042429"><ele>1072.7142857142858</ele><time>2026-03-30T10:06:54.973Z</time></trkpt><trkpt lat="45.88271453874294" lon="11.595688141242588"><ele>1073.5714285714284</ele><time>2026-03-30T10:07:00.972Z</time></trkpt><trkpt lat="45.88265167309028" lon="11.595631683991645"><ele>1074.4285714285716</ele><time>2026-03-30T10:07:07.972Z</time></trkpt><trkpt lat="45.88259032670181" lon="11.595595357254327"><ele>1075.2857142857142</ele><time>2026-03-30T10:07:12.972Z</time></trkpt><trkpt lat="45.88253062998636" lon="11.59554867797938"><ele>1076.142857142857</ele><time>2026-03-30T10:07:18.972Z</time></trkpt><trkpt lat="45.882468328020266" lon="11.595528415192737"><ele>1077.0</ele><time>2026-03-30T10:07:24.972Z</time></trkpt><trkpt lat="45.88240743172181" lon="11.595490551679708"><ele>1077.0</ele><time>2026-03-30T10:07:31.972Z</time></trkpt><trkpt lat="45.88234607136265" lon="11.595450313756807"><ele>1077.0</ele><time>2026-03-30T10:07:36.972Z</time></trkpt><trkpt lat="45.882286158435306" lon="11.595501983892847"><ele>1077.0</ele><time>2026-03-30T10:07:43.972Z</time></trkpt><trkpt lat="45.88223668845686" lon="11.595567903446089"><ele>1077.0</ele><time>2026-03-30T10:07:51.972Z</time></trkpt><trkpt lat="45.88220002221159" lon="11.595487357155884"><ele>1077.0</ele><time>2026-03-30T10:08:40.975Z</time></trkpt><trkpt lat="45.88229463485584" lon="11.595609170231493"><ele>1077.0</ele><time>2026-03-30T10:09:06.977Z</time></trkpt><trkpt lat="45.882262053485846" lon="11.595687318216903"><ele>1077.0</ele><time>2026-03-30T10:13:02.978Z</time></trkpt><trkpt lat="45.882237800164475" lon="11.595772132083608"><ele>1077.0</ele><time>2026-03-30T10:13:20.977Z</time></trkpt><trkpt lat="45.882247089415976" lon="11.59567795020361"><ele>1077.0</ele><time>2026-03-30T10:13:35.977Z</time></trkpt><trkpt lat="45.882190805494425" lon="11.595727748100106"><ele>1077.0</ele><time>2026-03-30T10:15:26.976Z</time></trkpt><trkpt lat="45.88225297840919" lon="11.595709992600343"><ele>1077.0</ele><time>2026-03-30T10:18:38.976Z</time></trkpt><trkpt lat="45.882315756570996" lon="11.595600905870779"><ele>1077.0</ele><time>2026-03-30T10:20:45.976Z</time></trkpt><trkpt lat="45.88240368697186" lon="11.59558032271016"><ele>1077.0</ele><time>2026-03-30T10:20:57.976Z</time></trkpt><trkpt lat="45.88246881522759" lon="11.595618613839324"><ele>1077.0</ele><time>2026-03-30T10:21:02.976Z</time></trkpt><trkpt lat="45.88253656386468" lon="11.59561572778839"><ele>1077.0</ele><time>2026-03-30T10:21:08.976Z</time></trkpt><trkpt lat="45.882605418214254" lon="11.595639674461646"><ele>1077.0</ele><time>2026-03-30T10:21:14.975Z</time></trkpt><trkpt lat="45.88266888623319" lon="11.5956643088538"><ele>1077.0</ele><time>2026-03-30T10:21:20.975Z</time></trkpt><trkpt lat="45.882718811718696" lon="11.595720002345299"><ele>1077.0</ele><time>2026-03-30T10:21:25.975Z</time></trkpt><trkpt lat="45.88271204403983" lon="11.595813498046928"><ele>1077.0</ele><time>2026-03-30T10:21:30.976Z</time></trkpt><trkpt lat="45.8826868144377" lon="11.595900961672571"><ele>1077.0</ele><time>2026-03-30T10:21:36.976Z</time></trkpt><trkpt lat="45.882632594705015" lon="11.59596661629185"><ele>1077.0</ele><time>2026-03-30T10:21:44.977Z</time></trkpt><trkpt lat="45.882577516500405" lon="11.596028877451664"><ele>1077.0</ele><time>2026-03-30T10:21:50.977Z</time></trkpt><trkpt lat="45.882529773075454" lon="11.596104473335526"><ele>1077.0</ele><time>2026-03-30T10:21:54.977Z</time></trkpt><trkpt lat="45.88247878763039" lon="11.596170125325516"><ele>1077.0</ele><time>2026-03-30T10:22:00.977Z</time></trkpt><trkpt lat="45.88243200097377" lon="11.5962380930159"><ele>1077.0</ele><time>2026-03-30T10:22:06.977Z</time></trkpt><trkpt lat="45.88237821497775" lon="11.596296544949338"><ele>1077.0</ele><time>2026-03-30T10:22:12.977Z</time></trkpt><trkpt lat="45.88233178761147" lon="11.596359849047605"><ele>1077.0</ele><time>2026-03-30T10:22:18.977Z</time></trkpt><trkpt lat="45.882279035106315" lon="11.596415759463445"><ele>1076.142857142857</ele><time>2026-03-30T10:22:24.976Z</time></trkpt><trkpt lat="45.882221966543135" lon="11.596465796600903"><ele>1075.2857142857142</ele><time>2026-03-30T10:22:29.976Z</time></trkpt><trkpt lat="45.88216927751016" lon="11.596519112742332"><ele>1074.4285714285716</ele><time>2026-03-30T10:22:33.976Z</time></trkpt><trkpt lat="45.8821070618799" lon="11.59657932582158"><ele>1073.5714285714284</ele><time>2026-03-30T10:22:38.976Z</time></trkpt><trkpt lat="45.88206258385872" lon="11.59664392070442"><ele>1072.7142857142858</ele><time>2026-03-30T10:22:43.976Z</time></trkpt><trkpt lat="45.88201403567907" lon="11.596720448999017"><ele>1071.857142857143</ele><time>2026-03-30T10:22:49.976Z</time></trkpt><trkpt lat="45.88196709438928" lon="11.596780980972873"><ele>1071.0</ele><time>2026-03-30T10:22:55.976Z</time></trkpt><trkpt lat="45.881911987719384" lon="11.596843008739002"><ele>1071.0</ele><time>2026-03-30T10:23:01.976Z</time></trkpt><trkpt lat="45.881864623267504" lon="11.596912015040997"><ele>1071.0</ele><time>2026-03-30T10:23:05.976Z</time></trkpt><trkpt lat="45.88181639097256" lon="11.596975507680495"><ele>1071.0</ele><time>2026-03-30T10:23:10.976Z</time></trkpt><trkpt lat="45.88176183849934" lon="11.597027587322149"><ele>1071.0</ele><time>2026-03-30T10:23:15.976Z</time></trkpt><trkpt lat="45.88170795157874" lon="11.59708381851135"><ele>1071.0</ele><time>2026-03-30T10:23:20.976Z</time></trkpt><trkpt lat="45.88164237739002" lon="11.597122269927047"><ele>1071.0</ele><time>2026-03-30T10:23:25.976Z</time></trkpt><trkpt lat="45.88159487897228" lon="11.59719594111592"><ele>1071.0</ele><time>2026-03-30T10:23:30.976Z</time></trkpt><trkpt lat="45.88153777617051" lon="11.597255842590604"><ele>1070.4285714285713</ele><time>2026-03-30T10:23:35.976Z</time></trkpt><trkpt lat="45.88149925323794" lon="11.597332003355694"><ele>1069.857142857143</ele><time>2026-03-30T10:23:42.976Z</time></trkpt><trkpt lat="45.88153655360728" lon="11.597413107626425"><ele>1069.2857142857142</ele><time>2026-03-30T10:23:49.977Z</time></trkpt><trkpt lat="45.88159488527128" lon="11.597464795610843"><ele>1068.7142857142858</ele><time>2026-03-30T10:23:54.977Z</time></trkpt><trkpt lat="45.88166220447543" lon="11.597479820606448"><ele>1068.142857142857</ele><time>2026-03-30T10:24:01.977Z</time></trkpt><trkpt lat="45.88173339199025" lon="11.597494530649824"><ele>1067.5714285714284</ele><time>2026-03-30T10:24:15.976Z</time></trkpt><trkpt lat="45.88180136793723" lon="11.597496630279482"><ele>1067.0</ele><time>2026-03-30T10:24:24.976Z</time></trkpt><trkpt lat="45.8818780774714" lon="11.59751224270826"><ele>1066.9999999999998</ele><time>2026-03-30T10:24:30.976Z</time></trkpt><trkpt lat="45.88194071034489" lon="11.597527547877725"><ele>1067.0</ele><time>2026-03-30T10:24:36.976Z</time></trkpt><trkpt lat="45.88200801247864" lon="11.597574152020611"><ele>1067.0</ele><time>2026-03-30T10:24:42.976Z</time></trkpt><trkpt lat="45.882072184194165" lon="11.5975886147275"><ele>1067.0</ele><time>2026-03-30T10:24:48.976Z</time></trkpt><trkpt lat="45.88214939154364" lon="11.597595903672465"><ele>1067.0</ele><time>2026-03-30T10:24:54.976Z</time></trkpt><trkpt lat="45.88221637115056" lon="11.597593590829916"><ele>1066.9999999999998</ele><time>2026-03-30T10:25:00.976Z</time></trkpt><trkpt lat="45.882271732451464" lon="11.597654196624852"><ele>1067.0</ele><time>2026-03-30T10:25:06.976Z</time></trkpt><trkpt lat="45.88228385019196" lon="11.597765365213371"><ele>1067.4285714285713</ele><time>2026-03-30T10:25:15.976Z</time></trkpt><trkpt lat="45.88227982650494" lon="11.597877562739138"><ele>1067.857142857143</ele><time>2026-03-30T10:25:22.976Z</time></trkpt><trkpt lat="45.88227550276955" lon="11.597971352306658"><ele>1068.2857142857142</ele><time>2026-03-30T10:25:28.976Z</time></trkpt><trkpt lat="45.88226503893265" lon="11.598074425419998"><ele>1068.7142857142858</ele><time>2026-03-30T10:25:34.975Z</time></trkpt><trkpt lat="45.88225154771506" lon="11.598165320718413"><ele>1069.142857142857</ele><time>2026-03-30T10:25:39.976Z</time></trkpt><trkpt lat="45.88221755259234" lon="11.598255665836456"><ele>1069.5714285714284</ele><time>2026-03-30T10:25:45.977Z</time></trkpt><trkpt lat="45.8821721768781" lon="11.598330505616874"><ele>1070.0</ele><time>2026-03-30T10:25:51.976Z</time></trkpt><trkpt lat="45.88213357986215" lon="11.598406257877238"><ele>1070.0</ele><time>2026-03-30T10:25:57.976Z</time></trkpt><trkpt lat="45.88211573673099" lon="11.598497040161615"><ele>1070.0</ele><time>2026-03-30T10:26:03.976Z</time></trkpt><trkpt lat="45.88211184133707" lon="11.598593867691577"><ele>1070.0</ele><time>2026-03-30T10:26:08.976Z</time></trkpt><trkpt lat="45.882157250523676" lon="11.598657708388522"><ele>1070.0</ele><time>2026-03-30T10:26:12.976Z</time></trkpt><trkpt lat="45.882192923736376" lon="11.598747034663797"><ele>1070.0</ele><time>2026-03-30T10:26:17.976Z</time></trkpt><trkpt lat="45.88222430703872" lon="11.598840142860324"><ele>1070.0</ele><time>2026-03-30T10:26:22.976Z</time></trkpt><trkpt lat="45.88227405079344" lon="11.59892080794708"><ele>1070.0</ele><time>2026-03-30T10:26:27.976Z</time></trkpt><trkpt lat="45.882331895041524" lon="11.598979824255574"><ele>1070.0</ele><time>2026-03-30T10:26:32.976Z</time></trkpt><trkpt lat="45.882388221045495" lon="11.599023616837394"><ele>1070.0</ele><time>2026-03-30T10:26:37.976Z</time></trkpt><trkpt lat="45.8824462506301" lon="11.599082786222587"><ele>1070.0</ele><time>2026-03-30T10:26:43.976Z</time></trkpt><trkpt lat="45.88252235809917" lon="11.599110706362769"><ele>1070.0</ele><time>2026-03-30T10:26:49.975Z</time></trkpt><trkpt lat="45.882590283448245" lon="11.599132566003895"><ele>1070.0</ele><time>2026-03-30T10:26:54.975Z</time></trkpt><trkpt lat="45.88263571388904" lon="11.599204309886865"><ele>1070.0</ele><time>2026-03-30T10:26:59.975Z</time></trkpt><trkpt lat="45.88267399472816" lon="11.599281823764414"><ele>1070.0</ele><time>2026-03-30T10:27:04.975Z</time></trkpt><trkpt lat="45.88269876164206" lon="11.599370414890908"><ele>1068.0</ele><time>2026-03-30T10:27:09.975Z</time></trkpt><trkpt lat="45.88272952691715" lon="11.599455329278856"><ele>1066.0</ele><time>2026-03-30T10:27:14.975Z</time></trkpt><trkpt lat="45.8827646594367" lon="11.599532572169418"><ele>1064.0</ele><time>2026-03-30T10:27:19.975Z</time></trkpt><trkpt lat="45.88279719512165" lon="11.599624346521745"><ele>1062.0</ele><time>2026-03-30T10:27:25.975Z</time></trkpt><trkpt lat="45.88283012014492" lon="11.599723168266404"><ele>1060.0</ele><time>2026-03-30T10:27:32.975Z</time></trkpt><trkpt lat="45.88286523045476" lon="11.599804689765916"><ele>1058.0</ele><time>2026-03-30T10:27:38.975Z</time></trkpt><trkpt lat="45.882890565860755" lon="11.599892022006886"><ele>1056.0</ele><time>2026-03-30T10:27:43.975Z</time></trkpt><trkpt lat="45.88291786254446" lon="11.599990138087666"><ele>1056.0</ele><time>2026-03-30T10:27:49.976Z</time></trkpt><trkpt lat="45.882968356627565" lon="11.600059397222298"><ele>1056.0</ele><time>2026-03-30T10:27:54.976Z</time></trkpt><trkpt lat="45.88300648293582" lon="11.60014061855094"><ele>1056.0</ele><time>2026-03-30T10:27:59.976Z</time></trkpt><trkpt lat="45.88303337121877" lon="11.600231902726135"><ele>1056.0</ele><time>2026-03-30T10:28:04.976Z</time></trkpt></trkseg></trk></gpx>